<?xml version="1.0" encoding="UTF-8" standalone="no" ?>
<gpx xmlns="http://www.topografix.com/GPX/1/1" xmlns:xsi="http://www.w3.org/2001/XMLSchema-instance" xsi:schemaLocation="http://www.topografix.com/GPX/1/1 http://www.topografix.com/GPX/1/1/gpx.xsd" version="1.1" creator="VisuGPX - https://www.visugpx.com">
  <metadata>
    <name>murles</name>
  </metadata>
  <trk>
    <name><![CDATA[2022-02-17 15-38-38]]></name>
    <trkseg>
      <trkpt lat="43.68761" lon="3.74407">
        <ele>172.21</ele>
        <time>2022-02-17T08:33:30Z</time>
      </trkpt>
      <trkpt lat="43.68751" lon="3.74404">
        <ele>170.77</ele>
        <time>2022-02-17T08:33:42Z</time>
      </trkpt>
      <trkpt lat="43.68747" lon="3.74401">
        <ele>170.29</ele>
        <time>2022-02-17T08:33:44Z</time>
      </trkpt>
      <trkpt lat="43.68727" lon="3.74389">
        <ele>167.89</ele>
        <time>2022-02-17T08:34:03Z</time>
      </trkpt>
      <trkpt lat="43.68713" lon="3.74382">
        <ele>165.48</ele>
        <time>2022-02-17T08:34:19Z</time>
      </trkpt>
      <trkpt lat="43.68705" lon="3.74376">
        <ele>163.56</ele>
        <time>2022-02-17T08:34:29Z</time>
      </trkpt>
      <trkpt lat="43.68689" lon="3.74365">
        <ele>160.68</ele>
        <time>2022-02-17T08:34:49Z</time>
      </trkpt>
      <trkpt lat="43.68665" lon="3.7435">
        <ele>156.35</ele>
        <time>2022-02-17T08:35:16Z</time>
      </trkpt>
      <trkpt lat="43.68647" lon="3.74338">
        <ele>153.95</ele>
        <time>2022-02-17T08:35:33Z</time>
      </trkpt>
      <trkpt lat="43.68628" lon="3.74324">
        <ele>151.06</ele>
        <time>2022-02-17T08:35:52Z</time>
      </trkpt>
      <trkpt lat="43.68614" lon="3.74313">
        <ele>148.18</ele>
        <time>2022-02-17T08:36:09Z</time>
      </trkpt>
      <trkpt lat="43.68606" lon="3.74306">
        <ele>146.74</ele>
        <time>2022-02-17T08:36:20Z</time>
      </trkpt>
      <trkpt lat="43.68591" lon="3.74295">
        <ele>145.3</ele>
        <time>2022-02-17T08:36:35Z</time>
      </trkpt>
      <trkpt lat="43.68576" lon="3.74283">
        <ele>143.85</ele>
        <time>2022-02-17T08:36:48Z</time>
      </trkpt>
      <trkpt lat="43.68561" lon="3.74272">
        <ele>141.93</ele>
        <time>2022-02-17T08:37:04Z</time>
      </trkpt>
      <trkpt lat="43.68548" lon="3.74263">
        <ele>140.97</ele>
        <time>2022-02-17T08:37:28Z</time>
      </trkpt>
      <trkpt lat="43.68528" lon="3.74249">
        <ele>140.97</ele>
        <time>2022-02-17T08:37:46Z</time>
      </trkpt>
      <trkpt lat="43.68519" lon="3.74241">
        <ele>140.97</ele>
        <time>2022-02-17T08:37:57Z</time>
      </trkpt>
      <trkpt lat="43.68505" lon="3.7423">
        <ele>140.97</ele>
        <time>2022-02-17T08:38:13Z</time>
      </trkpt>
      <trkpt lat="43.68495" lon="3.74219">
        <ele>140.01</ele>
        <time>2022-02-17T08:38:26Z</time>
      </trkpt>
      <trkpt lat="43.68484" lon="3.74205">
        <ele>140.01</ele>
        <time>2022-02-17T08:38:35Z</time>
      </trkpt>
      <trkpt lat="43.68468" lon="3.74194">
        <ele>139.53</ele>
        <time>2022-02-17T08:38:50Z</time>
      </trkpt>
      <trkpt lat="43.68455" lon="3.74194">
        <ele>138.57</ele>
        <time>2022-02-17T08:39:01Z</time>
      </trkpt>
      <trkpt lat="43.68445" lon="3.74196">
        <ele>137.61</ele>
        <time>2022-02-17T08:39:11Z</time>
      </trkpt>
      <trkpt lat="43.68435" lon="3.74197">
        <ele>137.13</ele>
        <time>2022-02-17T08:39:20Z</time>
      </trkpt>
      <trkpt lat="43.6843" lon="3.74198">
        <ele>137.13</ele>
        <time>2022-02-17T08:39:25Z</time>
      </trkpt>
      <trkpt lat="43.6842" lon="3.74199">
        <ele>137.13</ele>
        <time>2022-02-17T08:39:33Z</time>
      </trkpt>
      <trkpt lat="43.68406" lon="3.74202">
        <ele>137.13</ele>
        <time>2022-02-17T08:39:46Z</time>
      </trkpt>
      <trkpt lat="43.6839" lon="3.742">
        <ele>137.13</ele>
        <time>2022-02-17T08:40:02Z</time>
      </trkpt>
      <trkpt lat="43.6838" lon="3.74175">
        <ele>137.61</ele>
        <time>2022-02-17T08:40:24Z</time>
      </trkpt>
      <trkpt lat="43.68377" lon="3.74165">
        <ele>137.13</ele>
        <time>2022-02-17T08:40:34Z</time>
      </trkpt>
      <trkpt lat="43.68374" lon="3.74149">
        <ele>136.16</ele>
        <time>2022-02-17T08:40:50Z</time>
      </trkpt>
      <trkpt lat="43.68376" lon="3.74129">
        <ele>134.72</ele>
        <time>2022-02-17T08:41:03Z</time>
      </trkpt>
      <trkpt lat="43.68376" lon="3.74125">
        <ele>134.72</ele>
        <time>2022-02-17T08:41:05Z</time>
      </trkpt>
      <trkpt lat="43.68377" lon="3.74116">
        <ele>133.76</ele>
        <time>2022-02-17T08:41:11Z</time>
      </trkpt>
      <trkpt lat="43.68377" lon="3.7411">
        <ele>133.76</ele>
        <time>2022-02-17T08:41:15Z</time>
      </trkpt>
      <trkpt lat="43.68379" lon="3.74096">
        <ele>132.8</ele>
        <time>2022-02-17T08:41:27Z</time>
      </trkpt>
      <trkpt lat="43.68382" lon="3.74088">
        <ele>132.32</ele>
        <time>2022-02-17T08:41:33Z</time>
      </trkpt>
      <trkpt lat="43.68392" lon="3.74067">
        <ele>132.8</ele>
        <time>2022-02-17T08:41:49Z</time>
      </trkpt>
      <trkpt lat="43.68407" lon="3.74052">
        <ele>132.8</ele>
        <time>2022-02-17T08:42:09Z</time>
      </trkpt>
      <trkpt lat="43.68417" lon="3.74041">
        <ele>133.28</ele>
        <time>2022-02-17T08:42:23Z</time>
      </trkpt>
      <trkpt lat="43.68431" lon="3.74026">
        <ele>134.72</ele>
        <time>2022-02-17T08:42:41Z</time>
      </trkpt>
      <trkpt lat="43.68445" lon="3.74008">
        <ele>137.61</ele>
        <time>2022-02-17T08:42:59Z</time>
      </trkpt>
      <trkpt lat="43.68453" lon="3.73999">
        <ele>138.57</ele>
        <time>2022-02-17T08:43:08Z</time>
      </trkpt>
      <trkpt lat="43.68473" lon="3.7398">
        <ele>141.45</ele>
        <time>2022-02-17T08:43:31Z</time>
      </trkpt>
      <trkpt lat="43.68491" lon="3.73967">
        <ele>142.41</ele>
        <time>2022-02-17T08:43:49Z</time>
      </trkpt>
      <trkpt lat="43.68498" lon="3.73963">
        <ele>141.93</ele>
        <time>2022-02-17T08:43:57Z</time>
      </trkpt>
      <trkpt lat="43.68504" lon="3.73961">
        <ele>141.45</ele>
        <time>2022-02-17T08:44:02Z</time>
      </trkpt>
      <trkpt lat="43.68522" lon="3.73951">
        <ele>140.49</ele>
        <time>2022-02-17T08:44:20Z</time>
      </trkpt>
      <trkpt lat="43.68538" lon="3.73931">
        <ele>140.49</ele>
        <time>2022-02-17T08:44:41Z</time>
      </trkpt>
      <trkpt lat="43.68545" lon="3.73907">
        <ele>143.37</ele>
        <time>2022-02-17T08:45:00Z</time>
      </trkpt>
      <trkpt lat="43.68545" lon="3.73893">
        <ele>143.85</ele>
        <time>2022-02-17T08:45:15Z</time>
      </trkpt>
      <trkpt lat="43.68546" lon="3.73853">
        <ele>143.37</ele>
        <time>2022-02-17T08:45:41Z</time>
      </trkpt>
      <trkpt lat="43.6855" lon="3.73828">
        <ele>143.37</ele>
        <time>2022-02-17T08:45:58Z</time>
      </trkpt>
      <trkpt lat="43.68563" lon="3.73806">
        <ele>144.34</ele>
        <time>2022-02-17T08:46:17Z</time>
      </trkpt>
      <trkpt lat="43.68576" lon="3.73786">
        <ele>144.82</ele>
        <time>2022-02-17T08:46:35Z</time>
      </trkpt>
      <trkpt lat="43.68583" lon="3.73781">
        <ele>145.3</ele>
        <time>2022-02-17T08:46:43Z</time>
      </trkpt>
      <trkpt lat="43.68597" lon="3.73764">
        <ele>145.78</ele>
        <time>2022-02-17T08:47:01Z</time>
      </trkpt>
      <trkpt lat="43.6861" lon="3.73758">
        <ele>146.74</ele>
        <time>2022-02-17T08:47:14Z</time>
      </trkpt>
      <trkpt lat="43.68614" lon="3.73757">
        <ele>147.22</ele>
        <time>2022-02-17T08:47:18Z</time>
      </trkpt>
      <trkpt lat="43.68627" lon="3.7376">
        <ele>147.22</ele>
        <time>2022-02-17T08:47:29Z</time>
      </trkpt>
      <trkpt lat="43.68641" lon="3.73759">
        <ele>147.7</ele>
        <time>2022-02-17T08:47:42Z</time>
      </trkpt>
      <trkpt lat="43.68654" lon="3.73754">
        <ele>147.7</ele>
        <time>2022-02-17T08:47:54Z</time>
      </trkpt>
      <trkpt lat="43.68657" lon="3.73754">
        <ele>148.18</ele>
        <time>2022-02-17T08:47:56Z</time>
      </trkpt>
      <trkpt lat="43.6866" lon="3.73754">
        <ele>149.14</ele>
        <time>2022-02-17T08:47:59Z</time>
      </trkpt>
      <trkpt lat="43.68671" lon="3.73754">
        <ele>150.58</ele>
        <time>2022-02-17T08:48:10Z</time>
      </trkpt>
      <trkpt lat="43.68686" lon="3.73753">
        <ele>151.54</ele>
        <time>2022-02-17T08:48:25Z</time>
      </trkpt>
      <trkpt lat="43.68693" lon="3.73755">
        <ele>151.54</ele>
        <time>2022-02-17T08:48:30Z</time>
      </trkpt>
      <trkpt lat="43.68704" lon="3.73745">
        <ele>152.03</ele>
        <time>2022-02-17T08:48:42Z</time>
      </trkpt>
      <trkpt lat="43.68711" lon="3.73743">
        <ele>152.51</ele>
        <time>2022-02-17T08:48:48Z</time>
      </trkpt>
      <trkpt lat="43.68718" lon="3.73736">
        <ele>153.47</ele>
        <time>2022-02-17T08:48:55Z</time>
      </trkpt>
      <trkpt lat="43.68748" lon="3.73722">
        <ele>153.47</ele>
        <time>2022-02-17T08:49:22Z</time>
      </trkpt>
      <trkpt lat="43.68766" lon="3.73716">
        <ele>152.99</ele>
        <time>2022-02-17T08:49:39Z</time>
      </trkpt>
      <trkpt lat="43.68771" lon="3.73712">
        <ele>152.51</ele>
        <time>2022-02-17T08:49:44Z</time>
      </trkpt>
      <trkpt lat="43.68776" lon="3.7371">
        <ele>152.03</ele>
        <time>2022-02-17T08:49:49Z</time>
      </trkpt>
      <trkpt lat="43.68795" lon="3.73708">
        <ele>153.95</ele>
        <time>2022-02-17T08:50:07Z</time>
      </trkpt>
      <trkpt lat="43.68806" lon="3.73693">
        <ele>158.27</ele>
        <time>2022-02-17T08:50:28Z</time>
      </trkpt>
      <trkpt lat="43.68804" lon="3.73673">
        <ele>161.64</ele>
        <time>2022-02-17T08:50:43Z</time>
      </trkpt>
      <trkpt lat="43.68804" lon="3.73666">
        <ele>162.6</ele>
        <time>2022-02-17T08:50:47Z</time>
      </trkpt>
      <trkpt lat="43.68805" lon="3.7364">
        <ele>165</ele>
        <time>2022-02-17T08:51:05Z</time>
      </trkpt>
      <trkpt lat="43.68813" lon="3.73617">
        <ele>164.52</ele>
        <time>2022-02-17T08:51:23Z</time>
      </trkpt>
      <trkpt lat="43.68822" lon="3.73599">
        <ele>165</ele>
        <time>2022-02-17T08:51:39Z</time>
      </trkpt>
      <trkpt lat="43.68833" lon="3.73573">
        <ele>165.96</ele>
        <time>2022-02-17T08:51:59Z</time>
      </trkpt>
      <trkpt lat="43.68843" lon="3.73553">
        <ele>167.89</ele>
        <time>2022-02-17T08:52:15Z</time>
      </trkpt>
      <trkpt lat="43.68855" lon="3.73537">
        <ele>170.29</ele>
        <time>2022-02-17T08:52:31Z</time>
      </trkpt>
      <trkpt lat="43.68859" lon="3.7353">
        <ele>171.25</ele>
        <time>2022-02-17T08:52:38Z</time>
      </trkpt>
      <trkpt lat="43.68862" lon="3.73525">
        <ele>172.21</ele>
        <time>2022-02-17T08:52:43Z</time>
      </trkpt>
      <trkpt lat="43.68865" lon="3.73522">
        <ele>172.21</ele>
        <time>2022-02-17T08:52:47Z</time>
      </trkpt>
      <trkpt lat="43.68867" lon="3.7352">
        <ele>172.69</ele>
        <time>2022-02-17T08:52:49Z</time>
      </trkpt>
      <trkpt lat="43.68869" lon="3.73516">
        <ele>173.17</ele>
        <time>2022-02-17T08:52:53Z</time>
      </trkpt>
      <trkpt lat="43.68871" lon="3.73511">
        <ele>173.17</ele>
        <time>2022-02-17T08:52:57Z</time>
      </trkpt>
      <trkpt lat="43.68883" lon="3.73495">
        <ele>176.06</ele>
        <time>2022-02-17T08:53:15Z</time>
      </trkpt>
      <trkpt lat="43.68896" lon="3.73483">
        <ele>177.02</ele>
        <time>2022-02-17T08:53:30Z</time>
      </trkpt>
      <trkpt lat="43.68907" lon="3.73476">
        <ele>178.94</ele>
        <time>2022-02-17T08:53:47Z</time>
      </trkpt>
      <trkpt lat="43.68906" lon="3.73475">
        <ele>180.38</ele>
        <time>2022-02-17T08:54:37Z</time>
      </trkpt>
      <trkpt lat="43.68908" lon="3.73474">
        <ele>182.31</ele>
        <time>2022-02-17T08:55:24Z</time>
      </trkpt>
      <trkpt lat="43.68903" lon="3.73477">
        <ele>182.79</ele>
        <time>2022-02-17T08:56:22Z</time>
      </trkpt>
      <trkpt lat="43.68903" lon="3.7348">
        <ele>185.19</ele>
        <time>2022-02-17T08:57:19Z</time>
      </trkpt>
      <trkpt lat="43.68903" lon="3.73477">
        <ele>186.15</ele>
        <time>2022-02-17T08:58:12Z</time>
      </trkpt>
      <trkpt lat="43.68904" lon="3.73467">
        <ele>186.63</ele>
        <time>2022-02-17T08:58:58Z</time>
      </trkpt>
      <trkpt lat="43.68894" lon="3.73445">
        <ele>185.67</ele>
        <time>2022-02-17T08:59:21Z</time>
      </trkpt>
      <trkpt lat="43.6889" lon="3.73443">
        <ele>185.67</ele>
        <time>2022-02-17T08:59:24Z</time>
      </trkpt>
      <trkpt lat="43.68876" lon="3.7343">
        <ele>185.19</ele>
        <time>2022-02-17T08:59:41Z</time>
      </trkpt>
      <trkpt lat="43.68876" lon="3.73426">
        <ele>184.71</ele>
        <time>2022-02-17T08:59:44Z</time>
      </trkpt>
      <trkpt lat="43.68875" lon="3.73401">
        <ele>184.23</ele>
        <time>2022-02-17T09:00:01Z</time>
      </trkpt>
      <trkpt lat="43.68871" lon="3.73386">
        <ele>184.23</ele>
        <time>2022-02-17T09:00:13Z</time>
      </trkpt>
      <trkpt lat="43.68864" lon="3.73365">
        <ele>185.67</ele>
        <time>2022-02-17T09:00:30Z</time>
      </trkpt>
      <trkpt lat="43.68856" lon="3.73338">
        <ele>188.56</ele>
        <time>2022-02-17T09:00:53Z</time>
      </trkpt>
      <trkpt lat="43.68851" lon="3.73314">
        <ele>191.92</ele>
        <time>2022-02-17T09:01:11Z</time>
      </trkpt>
      <trkpt lat="43.68846" lon="3.73304">
        <ele>193.36</ele>
        <time>2022-02-17T09:01:21Z</time>
      </trkpt>
      <trkpt lat="43.68824" lon="3.73295">
        <ele>196.25</ele>
        <time>2022-02-17T09:01:42Z</time>
      </trkpt>
      <trkpt lat="43.68807" lon="3.73288">
        <ele>196.73</ele>
        <time>2022-02-17T09:01:59Z</time>
      </trkpt>
      <trkpt lat="43.68792" lon="3.7328">
        <ele>196.25</ele>
        <time>2022-02-17T09:02:14Z</time>
      </trkpt>
      <trkpt lat="43.68776" lon="3.73271">
        <ele>195.77</ele>
        <time>2022-02-17T09:02:30Z</time>
      </trkpt>
      <trkpt lat="43.68759" lon="3.73266">
        <ele>192.88</ele>
        <time>2022-02-17T09:02:47Z</time>
      </trkpt>
      <trkpt lat="43.68746" lon="3.73262">
        <ele>190.96</ele>
        <time>2022-02-17T09:03:01Z</time>
      </trkpt>
      <trkpt lat="43.68726" lon="3.7326">
        <ele>189.04</ele>
        <time>2022-02-17T09:03:19Z</time>
      </trkpt>
      <trkpt lat="43.68707" lon="3.73262">
        <ele>189.04</ele>
        <time>2022-02-17T09:03:36Z</time>
      </trkpt>
      <trkpt lat="43.68691" lon="3.73262">
        <ele>188.56</ele>
        <time>2022-02-17T09:03:51Z</time>
      </trkpt>
      <trkpt lat="43.68673" lon="3.73262">
        <ele>190</ele>
        <time>2022-02-17T09:04:07Z</time>
      </trkpt>
      <trkpt lat="43.68658" lon="3.73259">
        <ele>190</ele>
        <time>2022-02-17T09:04:21Z</time>
      </trkpt>
      <trkpt lat="43.68649" lon="3.73255">
        <ele>191.92</ele>
        <time>2022-02-17T09:04:30Z</time>
      </trkpt>
      <trkpt lat="43.68631" lon="3.7325">
        <ele>193.36</ele>
        <time>2022-02-17T09:04:47Z</time>
      </trkpt>
      <trkpt lat="43.68624" lon="3.73249">
        <ele>194.32</ele>
        <time>2022-02-17T09:04:53Z</time>
      </trkpt>
      <trkpt lat="43.68599" lon="3.73247">
        <ele>195.28</ele>
        <time>2022-02-17T09:05:16Z</time>
      </trkpt>
      <trkpt lat="43.6858" lon="3.73246">
        <ele>194.8</ele>
        <time>2022-02-17T09:05:33Z</time>
      </trkpt>
      <trkpt lat="43.68559" lon="3.73243">
        <ele>195.77</ele>
        <time>2022-02-17T09:05:52Z</time>
      </trkpt>
      <trkpt lat="43.68553" lon="3.73243">
        <ele>195.77</ele>
        <time>2022-02-17T09:05:59Z</time>
      </trkpt>
      <trkpt lat="43.68534" lon="3.73248">
        <ele>195.77</ele>
        <time>2022-02-17T09:06:18Z</time>
      </trkpt>
      <trkpt lat="43.68512" lon="3.73253">
        <ele>195.28</ele>
        <time>2022-02-17T09:06:36Z</time>
      </trkpt>
      <trkpt lat="43.68497" lon="3.73256">
        <ele>194.8</ele>
        <time>2022-02-17T09:06:50Z</time>
      </trkpt>
      <trkpt lat="43.68483" lon="3.73253">
        <ele>192.4</ele>
        <time>2022-02-17T09:07:03Z</time>
      </trkpt>
      <trkpt lat="43.68465" lon="3.73248">
        <ele>190.48</ele>
        <time>2022-02-17T09:07:20Z</time>
      </trkpt>
      <trkpt lat="43.6846" lon="3.73249">
        <ele>190</ele>
        <time>2022-02-17T09:07:25Z</time>
      </trkpt>
      <trkpt lat="43.68444" lon="3.73259">
        <ele>189.52</ele>
        <time>2022-02-17T09:07:40Z</time>
      </trkpt>
      <trkpt lat="43.68428" lon="3.73266">
        <ele>189.04</ele>
        <time>2022-02-17T09:07:55Z</time>
      </trkpt>
      <trkpt lat="43.68412" lon="3.73268">
        <ele>189.04</ele>
        <time>2022-02-17T09:08:10Z</time>
      </trkpt>
      <trkpt lat="43.68393" lon="3.73274">
        <ele>190</ele>
        <time>2022-02-17T09:08:28Z</time>
      </trkpt>
      <trkpt lat="43.68371" lon="3.73282">
        <ele>190.96</ele>
        <time>2022-02-17T09:08:47Z</time>
      </trkpt>
      <trkpt lat="43.68352" lon="3.73289">
        <ele>191.44</ele>
        <time>2022-02-17T09:09:05Z</time>
      </trkpt>
      <trkpt lat="43.68333" lon="3.73298">
        <ele>191.92</ele>
        <time>2022-02-17T09:09:23Z</time>
      </trkpt>
      <trkpt lat="43.68318" lon="3.73311">
        <ele>190.96</ele>
        <time>2022-02-17T09:09:40Z</time>
      </trkpt>
      <trkpt lat="43.68304" lon="3.7332">
        <ele>191.44</ele>
        <time>2022-02-17T09:09:54Z</time>
      </trkpt>
      <trkpt lat="43.68289" lon="3.7333">
        <ele>192.4</ele>
        <time>2022-02-17T09:10:09Z</time>
      </trkpt>
      <trkpt lat="43.68269" lon="3.73339">
        <ele>192.4</ele>
        <time>2022-02-17T09:10:27Z</time>
      </trkpt>
      <trkpt lat="43.68268" lon="3.73339">
        <ele>192.4</ele>
        <time>2022-02-17T09:10:28Z</time>
      </trkpt>
      <trkpt lat="43.68248" lon="3.73339">
        <ele>193.36</ele>
        <time>2022-02-17T09:10:47Z</time>
      </trkpt>
      <trkpt lat="43.68226" lon="3.73341">
        <ele>194.8</ele>
        <time>2022-02-17T09:11:07Z</time>
      </trkpt>
      <trkpt lat="43.6821" lon="3.73336">
        <ele>193.84</ele>
        <time>2022-02-17T09:11:21Z</time>
      </trkpt>
      <trkpt lat="43.68202" lon="3.73334">
        <ele>193.84</ele>
        <time>2022-02-17T09:11:30Z</time>
      </trkpt>
      <trkpt lat="43.68185" lon="3.73336">
        <ele>194.32</ele>
        <time>2022-02-17T09:11:46Z</time>
      </trkpt>
      <trkpt lat="43.68177" lon="3.73336">
        <ele>195.77</ele>
        <time>2022-02-17T09:11:54Z</time>
      </trkpt>
      <trkpt lat="43.68154" lon="3.73337">
        <ele>198.17</ele>
        <time>2022-02-17T09:12:14Z</time>
      </trkpt>
      <trkpt lat="43.68134" lon="3.73333">
        <ele>200.57</ele>
        <time>2022-02-17T09:12:33Z</time>
      </trkpt>
      <trkpt lat="43.68126" lon="3.73333">
        <ele>200.09</ele>
        <time>2022-02-17T09:12:40Z</time>
      </trkpt>
      <trkpt lat="43.68121" lon="3.73332">
        <ele>199.61</ele>
        <time>2022-02-17T09:12:45Z</time>
      </trkpt>
      <trkpt lat="43.68105" lon="3.73335">
        <ele>198.17</ele>
        <time>2022-02-17T09:13:02Z</time>
      </trkpt>
      <trkpt lat="43.68094" lon="3.73344">
        <ele>197.69</ele>
        <time>2022-02-17T09:13:14Z</time>
      </trkpt>
      <trkpt lat="43.68077" lon="3.73348">
        <ele>195.77</ele>
        <time>2022-02-17T09:13:32Z</time>
      </trkpt>
      <trkpt lat="43.68055" lon="3.73345">
        <ele>194.8</ele>
        <time>2022-02-17T09:13:52Z</time>
      </trkpt>
      <trkpt lat="43.68039" lon="3.73352">
        <ele>194.32</ele>
        <time>2022-02-17T09:14:08Z</time>
      </trkpt>
      <trkpt lat="43.68018" lon="3.7335">
        <ele>192.88</ele>
        <time>2022-02-17T09:14:28Z</time>
      </trkpt>
      <trkpt lat="43.67996" lon="3.73353">
        <ele>190.48</ele>
        <time>2022-02-17T09:14:48Z</time>
      </trkpt>
      <trkpt lat="43.67977" lon="3.73357">
        <ele>190</ele>
        <time>2022-02-17T09:15:07Z</time>
      </trkpt>
      <trkpt lat="43.67956" lon="3.7336">
        <ele>191.44</ele>
        <time>2022-02-17T09:15:26Z</time>
      </trkpt>
      <trkpt lat="43.67933" lon="3.73363">
        <ele>191.92</ele>
        <time>2022-02-17T09:15:47Z</time>
      </trkpt>
      <trkpt lat="43.67916" lon="3.73372">
        <ele>190.96</ele>
        <time>2022-02-17T09:16:03Z</time>
      </trkpt>
      <trkpt lat="43.67902" lon="3.73379">
        <ele>191.44</ele>
        <time>2022-02-17T09:16:17Z</time>
      </trkpt>
      <trkpt lat="43.67884" lon="3.73381">
        <ele>190.96</ele>
        <time>2022-02-17T09:16:33Z</time>
      </trkpt>
      <trkpt lat="43.6787" lon="3.73383">
        <ele>190.96</ele>
        <time>2022-02-17T09:16:45Z</time>
      </trkpt>
      <trkpt lat="43.67863" lon="3.73382">
        <ele>191.44</ele>
        <time>2022-02-17T09:16:51Z</time>
      </trkpt>
      <trkpt lat="43.67843" lon="3.73368">
        <ele>189.52</ele>
        <time>2022-02-17T09:17:13Z</time>
      </trkpt>
      <trkpt lat="43.67827" lon="3.73355">
        <ele>187.11</ele>
        <time>2022-02-17T09:17:30Z</time>
      </trkpt>
      <trkpt lat="43.6781" lon="3.73342">
        <ele>185.67</ele>
        <time>2022-02-17T09:17:47Z</time>
      </trkpt>
      <trkpt lat="43.67799" lon="3.73331">
        <ele>183.75</ele>
        <time>2022-02-17T09:17:59Z</time>
      </trkpt>
      <trkpt lat="43.67775" lon="3.73328">
        <ele>180.87</ele>
        <time>2022-02-17T09:18:22Z</time>
      </trkpt>
      <trkpt lat="43.67754" lon="3.73327">
        <ele>177.5</ele>
        <time>2022-02-17T09:18:41Z</time>
      </trkpt>
      <trkpt lat="43.6774" lon="3.7332">
        <ele>175.58</ele>
        <time>2022-02-17T09:18:56Z</time>
      </trkpt>
      <trkpt lat="43.67731" lon="3.73309">
        <ele>172.69</ele>
        <time>2022-02-17T09:19:09Z</time>
      </trkpt>
      <trkpt lat="43.67724" lon="3.73293">
        <ele>169.33</ele>
        <time>2022-02-17T09:19:25Z</time>
      </trkpt>
      <trkpt lat="43.67716" lon="3.73283">
        <ele>167.89</ele>
        <time>2022-02-17T09:19:47Z</time>
      </trkpt>
      <trkpt lat="43.67713" lon="3.73282">
        <ele>167.89</ele>
        <time>2022-02-17T09:19:51Z</time>
      </trkpt>
      <trkpt lat="43.67699" lon="3.73271">
        <ele>166.93</ele>
        <time>2022-02-17T09:20:10Z</time>
      </trkpt>
      <trkpt lat="43.67679" lon="3.73261">
        <ele>164.04</ele>
        <time>2022-02-17T09:20:33Z</time>
      </trkpt>
      <trkpt lat="43.67665" lon="3.73257">
        <ele>161.64</ele>
        <time>2022-02-17T09:20:53Z</time>
      </trkpt>
      <trkpt lat="43.6765" lon="3.73249">
        <ele>161.16</ele>
        <time>2022-02-17T09:21:13Z</time>
      </trkpt>
      <trkpt lat="43.67641" lon="3.7324">
        <ele>160.2</ele>
        <time>2022-02-17T09:21:31Z</time>
      </trkpt>
      <trkpt lat="43.67623" lon="3.73229">
        <ele>158.75</ele>
        <time>2022-02-17T09:21:50Z</time>
      </trkpt>
      <trkpt lat="43.67608" lon="3.73216">
        <ele>154.91</ele>
        <time>2022-02-17T09:22:08Z</time>
      </trkpt>
      <trkpt lat="43.67595" lon="3.73206">
        <ele>151.54</ele>
        <time>2022-02-17T09:22:25Z</time>
      </trkpt>
      <trkpt lat="43.6758" lon="3.73192">
        <ele>146.74</ele>
        <time>2022-02-17T09:22:44Z</time>
      </trkpt>
      <trkpt lat="43.67579" lon="3.73192">
        <ele>146.26</ele>
        <time>2022-02-17T09:22:45Z</time>
      </trkpt>
      <trkpt lat="43.67562" lon="3.732">
        <ele>145.3</ele>
        <time>2022-02-17T09:23:01Z</time>
      </trkpt>
      <trkpt lat="43.67542" lon="3.73206">
        <ele>144.34</ele>
        <time>2022-02-17T09:23:19Z</time>
      </trkpt>
      <trkpt lat="43.67527" lon="3.73211">
        <ele>144.82</ele>
        <time>2022-02-17T09:23:34Z</time>
      </trkpt>
      <trkpt lat="43.67526" lon="3.73211">
        <ele>144.82</ele>
        <time>2022-02-17T09:23:35Z</time>
      </trkpt>
      <trkpt lat="43.67517" lon="3.7322">
        <ele>144.82</ele>
        <time>2022-02-17T09:23:50Z</time>
      </trkpt>
      <trkpt lat="43.67512" lon="3.73229">
        <ele>144.82</ele>
        <time>2022-02-17T09:24:02Z</time>
      </trkpt>
      <trkpt lat="43.67511" lon="3.73229">
        <ele>145.78</ele>
        <time>2022-02-17T09:24:54Z</time>
      </trkpt>
      <trkpt lat="43.67509" lon="3.73229">
        <ele>147.22</ele>
        <time>2022-02-17T09:25:46Z</time>
      </trkpt>
      <trkpt lat="43.6751" lon="3.73228">
        <ele>147.22</ele>
        <time>2022-02-17T09:26:25Z</time>
      </trkpt>
      <trkpt lat="43.67503" lon="3.73226">
        <ele>145.78</ele>
        <time>2022-02-17T09:26:55Z</time>
      </trkpt>
      <trkpt lat="43.67494" lon="3.73216">
        <ele>144.82</ele>
        <time>2022-02-17T09:27:13Z</time>
      </trkpt>
      <trkpt lat="43.67491" lon="3.73204">
        <ele>143.85</ele>
        <time>2022-02-17T09:27:23Z</time>
      </trkpt>
      <trkpt lat="43.67495" lon="3.73183">
        <ele>140.49</ele>
        <time>2022-02-17T09:27:40Z</time>
      </trkpt>
      <trkpt lat="43.67499" lon="3.73163">
        <ele>136.64</ele>
        <time>2022-02-17T09:27:58Z</time>
      </trkpt>
      <trkpt lat="43.67504" lon="3.73125">
        <ele>131.84</ele>
        <time>2022-02-17T09:28:27Z</time>
      </trkpt>
      <trkpt lat="43.67506" lon="3.73104">
        <ele>128.47</ele>
        <time>2022-02-17T09:28:43Z</time>
      </trkpt>
      <trkpt lat="43.6751" lon="3.7308">
        <ele>124.15</ele>
        <time>2022-02-17T09:28:59Z</time>
      </trkpt>
      <trkpt lat="43.67512" lon="3.73057">
        <ele>125.59</ele>
        <time>2022-02-17T09:29:15Z</time>
      </trkpt>
      <trkpt lat="43.67502" lon="3.7304">
        <ele>125.11</ele>
        <time>2022-02-17T09:29:30Z</time>
      </trkpt>
      <trkpt lat="43.67483" lon="3.73026">
        <ele>123.67</ele>
        <time>2022-02-17T09:29:49Z</time>
      </trkpt>
      <trkpt lat="43.67463" lon="3.73014">
        <ele>123.19</ele>
        <time>2022-02-17T09:30:08Z</time>
      </trkpt>
      <trkpt lat="43.67436" lon="3.73001">
        <ele>124.15</ele>
        <time>2022-02-17T09:30:32Z</time>
      </trkpt>
      <trkpt lat="43.67415" lon="3.72993">
        <ele>124.15</ele>
        <time>2022-02-17T09:30:50Z</time>
      </trkpt>
      <trkpt lat="43.67392" lon="3.72984">
        <ele>125.11</ele>
        <time>2022-02-17T09:31:12Z</time>
      </trkpt>
      <trkpt lat="43.67375" lon="3.72976">
        <ele>123.67</ele>
        <time>2022-02-17T09:31:29Z</time>
      </trkpt>
      <trkpt lat="43.67356" lon="3.72966">
        <ele>122.22</ele>
        <time>2022-02-17T09:31:47Z</time>
      </trkpt>
      <trkpt lat="43.67343" lon="3.72959">
        <ele>118.86</ele>
        <time>2022-02-17T09:32:03Z</time>
      </trkpt>
      <trkpt lat="43.67326" lon="3.72941">
        <ele>119.34</ele>
        <time>2022-02-17T09:32:22Z</time>
      </trkpt>
      <trkpt lat="43.67311" lon="3.72932">
        <ele>117.42</ele>
        <time>2022-02-17T09:32:36Z</time>
      </trkpt>
      <trkpt lat="43.6731" lon="3.72932">
        <ele>117.42</ele>
        <time>2022-02-17T09:32:37Z</time>
      </trkpt>
      <trkpt lat="43.67298" lon="3.72928">
        <ele>115.5</ele>
        <time>2022-02-17T09:32:51Z</time>
      </trkpt>
      <trkpt lat="43.67279" lon="3.72926">
        <ele>112.61</ele>
        <time>2022-02-17T09:33:10Z</time>
      </trkpt>
      <trkpt lat="43.67263" lon="3.72925">
        <ele>110.21</ele>
        <time>2022-02-17T09:33:27Z</time>
      </trkpt>
      <trkpt lat="43.67254" lon="3.72924">
        <ele>108.77</ele>
        <time>2022-02-17T09:33:37Z</time>
      </trkpt>
      <trkpt lat="43.67244" lon="3.72915">
        <ele>106.84</ele>
        <time>2022-02-17T09:33:53Z</time>
      </trkpt>
      <trkpt lat="43.67244" lon="3.72908">
        <ele>106.36</ele>
        <time>2022-02-17T09:33:59Z</time>
      </trkpt>
      <trkpt lat="43.67253" lon="3.72894">
        <ele>104.92</ele>
        <time>2022-02-17T09:34:14Z</time>
      </trkpt>
      <trkpt lat="43.67261" lon="3.72885">
        <ele>103.48</ele>
        <time>2022-02-17T09:34:25Z</time>
      </trkpt>
      <trkpt lat="43.67271" lon="3.72872">
        <ele>102.52</ele>
        <time>2022-02-17T09:34:39Z</time>
      </trkpt>
      <trkpt lat="43.67283" lon="3.7286">
        <ele>99.63</ele>
        <time>2022-02-17T09:34:54Z</time>
      </trkpt>
      <trkpt lat="43.67292" lon="3.72851">
        <ele>98.19</ele>
        <time>2022-02-17T09:35:06Z</time>
      </trkpt>
      <trkpt lat="43.67303" lon="3.72836">
        <ele>97.71</ele>
        <time>2022-02-17T09:35:21Z</time>
      </trkpt>
      <trkpt lat="43.67304" lon="3.72834">
        <ele>97.23</ele>
        <time>2022-02-17T09:35:23Z</time>
      </trkpt>
      <trkpt lat="43.6732" lon="3.7283">
        <ele>96.75</ele>
        <time>2022-02-17T09:35:39Z</time>
      </trkpt>
      <trkpt lat="43.67339" lon="3.72826">
        <ele>97.23</ele>
        <time>2022-02-17T09:35:57Z</time>
      </trkpt>
      <trkpt lat="43.67352" lon="3.72825">
        <ele>98.19</ele>
        <time>2022-02-17T09:36:10Z</time>
      </trkpt>
      <trkpt lat="43.67367" lon="3.7283">
        <ele>99.63</ele>
        <time>2022-02-17T09:36:26Z</time>
      </trkpt>
      <trkpt lat="43.67389" lon="3.7283">
        <ele>100.6</ele>
        <time>2022-02-17T09:36:47Z</time>
      </trkpt>
      <trkpt lat="43.67398" lon="3.72828">
        <ele>100.6</ele>
        <time>2022-02-17T09:36:56Z</time>
      </trkpt>
      <trkpt lat="43.67404" lon="3.72827">
        <ele>99.63</ele>
        <time>2022-02-17T09:37:01Z</time>
      </trkpt>
      <trkpt lat="43.67412" lon="3.72826">
        <ele>98.67</ele>
        <time>2022-02-17T09:37:07Z</time>
      </trkpt>
      <trkpt lat="43.6743" lon="3.72822">
        <ele>95.31</ele>
        <time>2022-02-17T09:37:24Z</time>
      </trkpt>
      <trkpt lat="43.67446" lon="3.72824">
        <ele>94.83</ele>
        <time>2022-02-17T09:37:38Z</time>
      </trkpt>
      <trkpt lat="43.67462" lon="3.72826">
        <ele>92.42</ele>
        <time>2022-02-17T09:37:53Z</time>
      </trkpt>
      <trkpt lat="43.6748" lon="3.72825">
        <ele>94.35</ele>
        <time>2022-02-17T09:38:08Z</time>
      </trkpt>
      <trkpt lat="43.67497" lon="3.72824">
        <ele>96.27</ele>
        <time>2022-02-17T09:38:24Z</time>
      </trkpt>
      <trkpt lat="43.67518" lon="3.72824">
        <ele>94.83</ele>
        <time>2022-02-17T09:38:42Z</time>
      </trkpt>
      <trkpt lat="43.6752" lon="3.72824">
        <ele>95.31</ele>
        <time>2022-02-17T09:38:44Z</time>
      </trkpt>
      <trkpt lat="43.67529" lon="3.72824">
        <ele>95.79</ele>
        <time>2022-02-17T09:38:54Z</time>
      </trkpt>
      <trkpt lat="43.67548" lon="3.72826">
        <ele>96.75</ele>
        <time>2022-02-17T09:39:08Z</time>
      </trkpt>
      <trkpt lat="43.67563" lon="3.72827">
        <ele>97.71</ele>
        <time>2022-02-17T09:39:21Z</time>
      </trkpt>
      <trkpt lat="43.67585" lon="3.72822">
        <ele>97.23</ele>
        <time>2022-02-17T09:39:40Z</time>
      </trkpt>
      <trkpt lat="43.676" lon="3.72827">
        <ele>98.19</ele>
        <time>2022-02-17T09:39:54Z</time>
      </trkpt>
      <trkpt lat="43.67603" lon="3.72829">
        <ele>98.67</ele>
        <time>2022-02-17T09:39:57Z</time>
      </trkpt>
      <trkpt lat="43.67609" lon="3.7283">
        <ele>99.15</ele>
        <time>2022-02-17T09:40:02Z</time>
      </trkpt>
      <trkpt lat="43.67626" lon="3.72836">
        <ele>100.6</ele>
        <time>2022-02-17T09:40:17Z</time>
      </trkpt>
      <trkpt lat="43.67641" lon="3.72841">
        <ele>101.08</ele>
        <time>2022-02-17T09:40:31Z</time>
      </trkpt>
      <trkpt lat="43.67656" lon="3.72848">
        <ele>100.6</ele>
        <time>2022-02-17T09:40:45Z</time>
      </trkpt>
      <trkpt lat="43.67669" lon="3.72856">
        <ele>100.11</ele>
        <time>2022-02-17T09:40:58Z</time>
      </trkpt>
      <trkpt lat="43.67687" lon="3.72866">
        <ele>100.6</ele>
        <time>2022-02-17T09:41:15Z</time>
      </trkpt>
      <trkpt lat="43.67695" lon="3.72873">
        <ele>100.6</ele>
        <time>2022-02-17T09:41:24Z</time>
      </trkpt>
      <trkpt lat="43.67712" lon="3.72883">
        <ele>101.08</ele>
        <time>2022-02-17T09:41:41Z</time>
      </trkpt>
      <trkpt lat="43.67728" lon="3.72893">
        <ele>102.52</ele>
        <time>2022-02-17T09:41:56Z</time>
      </trkpt>
      <trkpt lat="43.67745" lon="3.72898">
        <ele>102.04</ele>
        <time>2022-02-17T09:42:11Z</time>
      </trkpt>
      <trkpt lat="43.67764" lon="3.729">
        <ele>102.52</ele>
        <time>2022-02-17T09:42:28Z</time>
      </trkpt>
      <trkpt lat="43.67782" lon="3.72902">
        <ele>100.6</ele>
        <time>2022-02-17T09:42:45Z</time>
      </trkpt>
      <trkpt lat="43.67793" lon="3.72902">
        <ele>98.67</ele>
        <time>2022-02-17T09:42:55Z</time>
      </trkpt>
      <trkpt lat="43.6781" lon="3.72904">
        <ele>96.27</ele>
        <time>2022-02-17T09:43:10Z</time>
      </trkpt>
      <trkpt lat="43.67823" lon="3.72906">
        <ele>95.79</ele>
        <time>2022-02-17T09:43:20Z</time>
      </trkpt>
      <trkpt lat="43.67827" lon="3.72907">
        <ele>96.27</ele>
        <time>2022-02-17T09:43:23Z</time>
      </trkpt>
      <trkpt lat="43.67837" lon="3.72908">
        <ele>98.19</ele>
        <time>2022-02-17T09:43:31Z</time>
      </trkpt>
      <trkpt lat="43.67863" lon="3.7291">
        <ele>100.6</ele>
        <time>2022-02-17T09:43:52Z</time>
      </trkpt>
      <trkpt lat="43.67879" lon="3.72907">
        <ele>99.15</ele>
        <time>2022-02-17T09:44:07Z</time>
      </trkpt>
      <trkpt lat="43.67894" lon="3.72905">
        <ele>94.83</ele>
        <time>2022-02-17T09:44:23Z</time>
      </trkpt>
      <trkpt lat="43.67922" lon="3.72908">
        <ele>93.87</ele>
        <time>2022-02-17T09:44:44Z</time>
      </trkpt>
      <trkpt lat="43.67925" lon="3.72905">
        <ele>94.35</ele>
        <time>2022-02-17T09:44:48Z</time>
      </trkpt>
      <trkpt lat="43.67928" lon="3.72884">
        <ele>95.31</ele>
        <time>2022-02-17T09:45:03Z</time>
      </trkpt>
      <trkpt lat="43.67932" lon="3.72864">
        <ele>97.23</ele>
        <time>2022-02-17T09:45:23Z</time>
      </trkpt>
      <trkpt lat="43.67929" lon="3.72834">
        <ele>99.63</ele>
        <time>2022-02-17T09:45:48Z</time>
      </trkpt>
      <trkpt lat="43.67927" lon="3.72799">
        <ele>103</ele>
        <time>2022-02-17T09:46:15Z</time>
      </trkpt>
      <trkpt lat="43.67925" lon="3.728">
        <ele>106.36</ele>
        <time>2022-02-17T09:46:41Z</time>
      </trkpt>
      <trkpt lat="43.67922" lon="3.72795">
        <ele>109.73</ele>
        <time>2022-02-17T09:47:19Z</time>
      </trkpt>
      <trkpt lat="43.67921" lon="3.72793">
        <ele>111.17</ele>
        <time>2022-02-17T09:48:22Z</time>
      </trkpt>
      <trkpt lat="43.67926" lon="3.72796">
        <ele>113.09</ele>
        <time>2022-02-17T09:49:30Z</time>
      </trkpt>
      <trkpt lat="43.6793" lon="3.72788">
        <ele>114.53</ele>
        <time>2022-02-17T09:49:44Z</time>
      </trkpt>
      <trkpt lat="43.67936" lon="3.72775">
        <ele>117.42</ele>
        <time>2022-02-17T09:49:59Z</time>
      </trkpt>
      <trkpt lat="43.6794" lon="3.72769">
        <ele>118.38</ele>
        <time>2022-02-17T09:50:06Z</time>
      </trkpt>
      <trkpt lat="43.6795" lon="3.72753">
        <ele>120.78</ele>
        <time>2022-02-17T09:50:24Z</time>
      </trkpt>
      <trkpt lat="43.67962" lon="3.72739">
        <ele>122.22</ele>
        <time>2022-02-17T09:50:42Z</time>
      </trkpt>
      <trkpt lat="43.67973" lon="3.72731">
        <ele>123.19</ele>
        <time>2022-02-17T09:50:58Z</time>
      </trkpt>
      <trkpt lat="43.6798" lon="3.7273">
        <ele>123.19</ele>
        <time>2022-02-17T09:51:18Z</time>
      </trkpt>
      <trkpt lat="43.67981" lon="3.72729">
        <ele>124.15</ele>
        <time>2022-02-17T09:51:52Z</time>
      </trkpt>
      <trkpt lat="43.67983" lon="3.72731">
        <ele>124.63</ele>
        <time>2022-02-17T09:52:32Z</time>
      </trkpt>
      <trkpt lat="43.67983" lon="3.72731">
        <ele>123.67</ele>
        <time>2022-02-17T09:53:21Z</time>
      </trkpt>
      <trkpt lat="43.67984" lon="3.72729">
        <ele>124.15</ele>
        <time>2022-02-17T09:54:23Z</time>
      </trkpt>
      <trkpt lat="43.67983" lon="3.72729">
        <ele>124.15</ele>
        <time>2022-02-17T09:54:47Z</time>
      </trkpt>
      <trkpt lat="43.67984" lon="3.72731">
        <ele>124.15</ele>
        <time>2022-02-17T09:55:04Z</time>
      </trkpt>
      <trkpt lat="43.67987" lon="3.7273">
        <ele>124.63</ele>
        <time>2022-02-17T09:55:08Z</time>
      </trkpt>
      <trkpt lat="43.67997" lon="3.72728">
        <ele>125.11</ele>
        <time>2022-02-17T09:55:20Z</time>
      </trkpt>
      <trkpt lat="43.68017" lon="3.7272">
        <ele>124.15</ele>
        <time>2022-02-17T09:55:41Z</time>
      </trkpt>
      <trkpt lat="43.68021" lon="3.72717">
        <ele>123.67</ele>
        <time>2022-02-17T09:55:47Z</time>
      </trkpt>
      <trkpt lat="43.68026" lon="3.72714">
        <ele>123.67</ele>
        <time>2022-02-17T09:55:52Z</time>
      </trkpt>
      <trkpt lat="43.68042" lon="3.72705">
        <ele>125.11</ele>
        <time>2022-02-17T09:56:11Z</time>
      </trkpt>
      <trkpt lat="43.68053" lon="3.727">
        <ele>124.63</ele>
        <time>2022-02-17T09:56:22Z</time>
      </trkpt>
      <trkpt lat="43.6806" lon="3.72695">
        <ele>124.63</ele>
        <time>2022-02-17T09:56:28Z</time>
      </trkpt>
      <trkpt lat="43.68075" lon="3.72683">
        <ele>126.55</ele>
        <time>2022-02-17T09:56:45Z</time>
      </trkpt>
      <trkpt lat="43.6808" lon="3.72677">
        <ele>127.51</ele>
        <time>2022-02-17T09:56:51Z</time>
      </trkpt>
      <trkpt lat="43.68097" lon="3.72663">
        <ele>128.47</ele>
        <time>2022-02-17T09:57:08Z</time>
      </trkpt>
      <trkpt lat="43.68102" lon="3.72658">
        <ele>128.47</ele>
        <time>2022-02-17T09:57:13Z</time>
      </trkpt>
      <trkpt lat="43.68103" lon="3.72649">
        <ele>127.99</ele>
        <time>2022-02-17T09:57:19Z</time>
      </trkpt>
      <trkpt lat="43.68104" lon="3.72637">
        <ele>128.47</ele>
        <time>2022-02-17T09:57:28Z</time>
      </trkpt>
      <trkpt lat="43.68108" lon="3.72623">
        <ele>129.43</ele>
        <time>2022-02-17T09:57:38Z</time>
      </trkpt>
      <trkpt lat="43.68116" lon="3.72605">
        <ele>130.88</ele>
        <time>2022-02-17T09:57:53Z</time>
      </trkpt>
      <trkpt lat="43.68124" lon="3.72576">
        <ele>130.4</ele>
        <time>2022-02-17T09:58:13Z</time>
      </trkpt>
      <trkpt lat="43.68125" lon="3.72547">
        <ele>132.32</ele>
        <time>2022-02-17T09:58:37Z</time>
      </trkpt>
      <trkpt lat="43.68128" lon="3.72541">
        <ele>132.32</ele>
        <time>2022-02-17T09:58:42Z</time>
      </trkpt>
      <trkpt lat="43.68137" lon="3.72527">
        <ele>133.76</ele>
        <time>2022-02-17T09:58:57Z</time>
      </trkpt>
      <trkpt lat="43.68143" lon="3.72516">
        <ele>133.76</ele>
        <time>2022-02-17T09:59:10Z</time>
      </trkpt>
      <trkpt lat="43.68152" lon="3.72503">
        <ele>134.24</ele>
        <time>2022-02-17T09:59:25Z</time>
      </trkpt>
      <trkpt lat="43.68161" lon="3.7249">
        <ele>135.2</ele>
        <time>2022-02-17T09:59:36Z</time>
      </trkpt>
      <trkpt lat="43.6817" lon="3.72475">
        <ele>136.16</ele>
        <time>2022-02-17T09:59:51Z</time>
      </trkpt>
      <trkpt lat="43.68172" lon="3.7247">
        <ele>136.64</ele>
        <time>2022-02-17T09:59:56Z</time>
      </trkpt>
      <trkpt lat="43.68179" lon="3.72459">
        <ele>138.09</ele>
        <time>2022-02-17T10:00:06Z</time>
      </trkpt>
      <trkpt lat="43.68188" lon="3.72447">
        <ele>141.93</ele>
        <time>2022-02-17T10:00:20Z</time>
      </trkpt>
      <trkpt lat="43.68193" lon="3.72434">
        <ele>143.85</ele>
        <time>2022-02-17T10:00:32Z</time>
      </trkpt>
      <trkpt lat="43.68196" lon="3.7242">
        <ele>144.82</ele>
        <time>2022-02-17T10:00:46Z</time>
      </trkpt>
      <trkpt lat="43.68201" lon="3.72406">
        <ele>145.78</ele>
        <time>2022-02-17T10:00:58Z</time>
      </trkpt>
      <trkpt lat="43.68207" lon="3.72393">
        <ele>148.66</ele>
        <time>2022-02-17T10:01:13Z</time>
      </trkpt>
      <trkpt lat="43.68213" lon="3.72381">
        <ele>150.1</ele>
        <time>2022-02-17T10:01:23Z</time>
      </trkpt>
      <trkpt lat="43.68222" lon="3.72369">
        <ele>151.06</ele>
        <time>2022-02-17T10:01:37Z</time>
      </trkpt>
      <trkpt lat="43.68224" lon="3.72353">
        <ele>148.18</ele>
        <time>2022-02-17T10:01:56Z</time>
      </trkpt>
      <trkpt lat="43.68226" lon="3.72348">
        <ele>147.7</ele>
        <time>2022-02-17T10:02:01Z</time>
      </trkpt>
      <trkpt lat="43.68234" lon="3.7233">
        <ele>147.22</ele>
        <time>2022-02-17T10:02:20Z</time>
      </trkpt>
      <trkpt lat="43.68239" lon="3.72312">
        <ele>149.62</ele>
        <time>2022-02-17T10:02:38Z</time>
      </trkpt>
      <trkpt lat="43.68247" lon="3.723">
        <ele>150.58</ele>
        <time>2022-02-17T10:02:52Z</time>
      </trkpt>
      <trkpt lat="43.6826" lon="3.72287">
        <ele>151.06</ele>
        <time>2022-02-17T10:03:10Z</time>
      </trkpt>
      <trkpt lat="43.68276" lon="3.72275">
        <ele>150.58</ele>
        <time>2022-02-17T10:03:28Z</time>
      </trkpt>
      <trkpt lat="43.68291" lon="3.72265">
        <ele>151.54</ele>
        <time>2022-02-17T10:03:45Z</time>
      </trkpt>
      <trkpt lat="43.68306" lon="3.72254">
        <ele>152.99</ele>
        <time>2022-02-17T10:04:04Z</time>
      </trkpt>
      <trkpt lat="43.68307" lon="3.72252">
        <ele>153.47</ele>
        <time>2022-02-17T10:04:06Z</time>
      </trkpt>
      <trkpt lat="43.68319" lon="3.72247">
        <ele>154.43</ele>
        <time>2022-02-17T10:04:21Z</time>
      </trkpt>
      <trkpt lat="43.68336" lon="3.72239">
        <ele>156.83</ele>
        <time>2022-02-17T10:04:40Z</time>
      </trkpt>
      <trkpt lat="43.68348" lon="3.72233">
        <ele>157.79</ele>
        <time>2022-02-17T10:04:55Z</time>
      </trkpt>
      <trkpt lat="43.68366" lon="3.72224">
        <ele>158.75</ele>
        <time>2022-02-17T10:05:16Z</time>
      </trkpt>
      <trkpt lat="43.68377" lon="3.72216">
        <ele>160.68</ele>
        <time>2022-02-17T10:05:31Z</time>
      </trkpt>
      <trkpt lat="43.68389" lon="3.72211">
        <ele>162.6</ele>
        <time>2022-02-17T10:05:49Z</time>
      </trkpt>
      <trkpt lat="43.68407" lon="3.72203">
        <ele>167.41</ele>
        <time>2022-02-17T10:06:13Z</time>
      </trkpt>
      <trkpt lat="43.68418" lon="3.72199">
        <ele>168.37</ele>
        <time>2022-02-17T10:06:21Z</time>
      </trkpt>
      <trkpt lat="43.68423" lon="3.72195">
        <ele>168.85</ele>
        <time>2022-02-17T10:06:28Z</time>
      </trkpt>
      <trkpt lat="43.68437" lon="3.72194">
        <ele>172.21</ele>
        <time>2022-02-17T10:06:46Z</time>
      </trkpt>
      <trkpt lat="43.68443" lon="3.72196">
        <ele>173.66</ele>
        <time>2022-02-17T10:06:57Z</time>
      </trkpt>
      <trkpt lat="43.68454" lon="3.72185">
        <ele>176.54</ele>
        <time>2022-02-17T10:07:12Z</time>
      </trkpt>
      <trkpt lat="43.68456" lon="3.72184">
        <ele>177.02</ele>
        <time>2022-02-17T10:07:14Z</time>
      </trkpt>
      <trkpt lat="43.68468" lon="3.72175">
        <ele>177.5</ele>
        <time>2022-02-17T10:07:32Z</time>
      </trkpt>
      <trkpt lat="43.68475" lon="3.7217">
        <ele>177.02</ele>
        <time>2022-02-17T10:07:42Z</time>
      </trkpt>
      <trkpt lat="43.6848" lon="3.72168">
        <ele>175.58</ele>
        <time>2022-02-17T10:08:03Z</time>
      </trkpt>
      <trkpt lat="43.6848" lon="3.72169">
        <ele>174.62</ele>
        <time>2022-02-17T10:08:21Z</time>
      </trkpt>
      <trkpt lat="43.6848" lon="3.72172">
        <ele>173.66</ele>
        <time>2022-02-17T10:08:40Z</time>
      </trkpt>
      <trkpt lat="43.6848" lon="3.72173">
        <ele>169.33</ele>
        <time>2022-02-17T10:10:14Z</time>
      </trkpt>
      <trkpt lat="43.6848" lon="3.72172">
        <ele>169.81</ele>
        <time>2022-02-17T10:11:35Z</time>
      </trkpt>
      <trkpt lat="43.6848" lon="3.72171">
        <ele>169.33</ele>
        <time>2022-02-17T10:13:07Z</time>
      </trkpt>
      <trkpt lat="43.68481" lon="3.72171">
        <ele>169.33</ele>
        <time>2022-02-17T10:14:50Z</time>
      </trkpt>
      <trkpt lat="43.6848" lon="3.72169">
        <ele>167.89</ele>
        <time>2022-02-17T10:16:18Z</time>
      </trkpt>
      <trkpt lat="43.68484" lon="3.72168">
        <ele>167.89</ele>
        <time>2022-02-17T10:16:27Z</time>
      </trkpt>
      <trkpt lat="43.68486" lon="3.72166">
        <ele>167.89</ele>
        <time>2022-02-17T10:16:30Z</time>
      </trkpt>
      <trkpt lat="43.68504" lon="3.72162">
        <ele>166.45</ele>
        <time>2022-02-17T10:16:47Z</time>
      </trkpt>
      <trkpt lat="43.68513" lon="3.72153">
        <ele>166.93</ele>
        <time>2022-02-17T10:17:00Z</time>
      </trkpt>
      <trkpt lat="43.68515" lon="3.72142">
        <ele>168.85</ele>
        <time>2022-02-17T10:17:16Z</time>
      </trkpt>
      <trkpt lat="43.68516" lon="3.72126">
        <ele>173.66</ele>
        <time>2022-02-17T10:17:39Z</time>
      </trkpt>
      <trkpt lat="43.68515" lon="3.72112">
        <ele>177.02</ele>
        <time>2022-02-17T10:18:02Z</time>
      </trkpt>
      <trkpt lat="43.68513" lon="3.72097">
        <ele>179.9</ele>
        <time>2022-02-17T10:18:26Z</time>
      </trkpt>
      <trkpt lat="43.68512" lon="3.72083">
        <ele>183.27</ele>
        <time>2022-02-17T10:18:47Z</time>
      </trkpt>
      <trkpt lat="43.6851" lon="3.72068">
        <ele>187.11</ele>
        <time>2022-02-17T10:19:13Z</time>
      </trkpt>
      <trkpt lat="43.68509" lon="3.72052">
        <ele>191.44</ele>
        <time>2022-02-17T10:19:40Z</time>
      </trkpt>
      <trkpt lat="43.68509" lon="3.72034">
        <ele>194.8</ele>
        <time>2022-02-17T10:20:06Z</time>
      </trkpt>
      <trkpt lat="43.68507" lon="3.7202">
        <ele>197.69</ele>
        <time>2022-02-17T10:20:27Z</time>
      </trkpt>
      <trkpt lat="43.68504" lon="3.72009">
        <ele>200.57</ele>
        <time>2022-02-17T10:20:52Z</time>
      </trkpt>
      <trkpt lat="43.68495" lon="3.72013">
        <ele>200.57</ele>
        <time>2022-02-17T10:21:24Z</time>
      </trkpt>
      <trkpt lat="43.68489" lon="3.7201">
        <ele>201.53</ele>
        <time>2022-02-17T10:21:41Z</time>
      </trkpt>
      <trkpt lat="43.68483" lon="3.72002">
        <ele>203.94</ele>
        <time>2022-02-17T10:22:02Z</time>
      </trkpt>
      <trkpt lat="43.68478" lon="3.72001">
        <ele>205.38</ele>
        <time>2022-02-17T10:22:19Z</time>
      </trkpt>
      <trkpt lat="43.68472" lon="3.72001">
        <ele>207.3</ele>
        <time>2022-02-17T10:22:35Z</time>
      </trkpt>
      <trkpt lat="43.68466" lon="3.71986">
        <ele>210.19</ele>
        <time>2022-02-17T10:23:01Z</time>
      </trkpt>
      <trkpt lat="43.68463" lon="3.71976">
        <ele>212.59</ele>
        <time>2022-02-17T10:23:23Z</time>
      </trkpt>
      <trkpt lat="43.68461" lon="3.71973">
        <ele>215.47</ele>
        <time>2022-02-17T10:23:43Z</time>
      </trkpt>
      <trkpt lat="43.68453" lon="3.71973">
        <ele>217.4</ele>
        <time>2022-02-17T10:23:59Z</time>
      </trkpt>
      <trkpt lat="43.68442" lon="3.71973">
        <ele>220.76</ele>
        <time>2022-02-17T10:24:21Z</time>
      </trkpt>
      <trkpt lat="43.68426" lon="3.71973">
        <ele>224.61</ele>
        <time>2022-02-17T10:24:44Z</time>
      </trkpt>
      <trkpt lat="43.68407" lon="3.7197">
        <ele>227.49</ele>
        <time>2022-02-17T10:25:06Z</time>
      </trkpt>
      <trkpt lat="43.6839" lon="3.71966">
        <ele>231.33</ele>
        <time>2022-02-17T10:25:28Z</time>
      </trkpt>
      <trkpt lat="43.68387" lon="3.71965">
        <ele>231.81</ele>
        <time>2022-02-17T10:25:32Z</time>
      </trkpt>
      <trkpt lat="43.68375" lon="3.7196">
        <ele>233.74</ele>
        <time>2022-02-17T10:25:48Z</time>
      </trkpt>
      <trkpt lat="43.68366" lon="3.71962">
        <ele>235.18</ele>
        <time>2022-02-17T10:26:00Z</time>
      </trkpt>
      <trkpt lat="43.68352" lon="3.71959">
        <ele>238.54</ele>
        <time>2022-02-17T10:26:16Z</time>
      </trkpt>
      <trkpt lat="43.68353" lon="3.71949">
        <ele>240.47</ele>
        <time>2022-02-17T10:26:29Z</time>
      </trkpt>
      <trkpt lat="43.68362" lon="3.71934">
        <ele>244.79</ele>
        <time>2022-02-17T10:26:54Z</time>
      </trkpt>
      <trkpt lat="43.68376" lon="3.71924">
        <ele>248.64</ele>
        <time>2022-02-17T10:27:18Z</time>
      </trkpt>
      <trkpt lat="43.6838" lon="3.71916">
        <ele>250.08</ele>
        <time>2022-02-17T10:27:32Z</time>
      </trkpt>
      <trkpt lat="43.68386" lon="3.71909">
        <ele>250.56</ele>
        <time>2022-02-17T10:27:49Z</time>
      </trkpt>
      <trkpt lat="43.68392" lon="3.71895">
        <ele>252</ele>
        <time>2022-02-17T10:28:10Z</time>
      </trkpt>
      <trkpt lat="43.68399" lon="3.71886">
        <ele>254.41</ele>
        <time>2022-02-17T10:28:25Z</time>
      </trkpt>
      <trkpt lat="43.6839" lon="3.71881">
        <ele>258.73</ele>
        <time>2022-02-17T10:28:46Z</time>
      </trkpt>
      <trkpt lat="43.68377" lon="3.71879">
        <ele>262.1</ele>
        <time>2022-02-17T10:29:12Z</time>
      </trkpt>
      <trkpt lat="43.68368" lon="3.71865">
        <ele>264.98</ele>
        <time>2022-02-17T10:29:35Z</time>
      </trkpt>
      <trkpt lat="43.6837" lon="3.71861">
        <ele>263.54</ele>
        <time>2022-02-17T10:30:07Z</time>
      </trkpt>
      <trkpt lat="43.68373" lon="3.71859">
        <ele>261.62</ele>
        <time>2022-02-17T10:31:13Z</time>
      </trkpt>
      <trkpt lat="43.68378" lon="3.7185">
        <ele>263.54</ele>
        <time>2022-02-17T10:31:35Z</time>
      </trkpt>
      <trkpt lat="43.68369" lon="3.71846">
        <ele>264.5</ele>
        <time>2022-02-17T10:31:57Z</time>
      </trkpt>
      <trkpt lat="43.68366" lon="3.71843">
        <ele>267.38</ele>
        <time>2022-02-17T10:32:11Z</time>
      </trkpt>
      <trkpt lat="43.68362" lon="3.71841">
        <ele>269.31</ele>
        <time>2022-02-17T10:32:23Z</time>
      </trkpt>
      <trkpt lat="43.68354" lon="3.71835">
        <ele>270.27</ele>
        <time>2022-02-17T10:32:40Z</time>
      </trkpt>
      <trkpt lat="43.68353" lon="3.71833">
        <ele>271.23</ele>
        <time>2022-02-17T10:33:03Z</time>
      </trkpt>
      <trkpt lat="43.68351" lon="3.71832">
        <ele>271.71</ele>
        <time>2022-02-17T10:34:05Z</time>
      </trkpt>
      <trkpt lat="43.68347" lon="3.71826">
        <ele>273.15</ele>
        <time>2022-02-17T10:34:40Z</time>
      </trkpt>
      <trkpt lat="43.68348" lon="3.71823">
        <ele>273.63</ele>
        <time>2022-02-17T10:34:42Z</time>
      </trkpt>
      <trkpt lat="43.68357" lon="3.71818">
        <ele>274.59</ele>
        <time>2022-02-17T10:34:57Z</time>
      </trkpt>
      <trkpt lat="43.68363" lon="3.71807">
        <ele>276.52</ele>
        <time>2022-02-17T10:35:15Z</time>
      </trkpt>
      <trkpt lat="43.68363" lon="3.71793">
        <ele>278.92</ele>
        <time>2022-02-17T10:35:31Z</time>
      </trkpt>
      <trkpt lat="43.68368" lon="3.71778">
        <ele>281.8</ele>
        <time>2022-02-17T10:35:50Z</time>
      </trkpt>
      <trkpt lat="43.68369" lon="3.71768">
        <ele>283.73</ele>
        <time>2022-02-17T10:36:03Z</time>
      </trkpt>
      <trkpt lat="43.68362" lon="3.71755">
        <ele>284.21</ele>
        <time>2022-02-17T10:36:17Z</time>
      </trkpt>
      <trkpt lat="43.68364" lon="3.71742">
        <ele>284.21</ele>
        <time>2022-02-17T10:36:28Z</time>
      </trkpt>
      <trkpt lat="43.68363" lon="3.71734">
        <ele>285.17</ele>
        <time>2022-02-17T10:36:37Z</time>
      </trkpt>
      <trkpt lat="43.68364" lon="3.7171">
        <ele>287.09</ele>
        <time>2022-02-17T10:36:58Z</time>
      </trkpt>
      <trkpt lat="43.68365" lon="3.71696">
        <ele>286.13</ele>
        <time>2022-02-17T10:37:11Z</time>
      </trkpt>
      <trkpt lat="43.68363" lon="3.7169">
        <ele>286.61</ele>
        <time>2022-02-17T10:37:16Z</time>
      </trkpt>
      <trkpt lat="43.68369" lon="3.71664">
        <ele>287.09</ele>
        <time>2022-02-17T10:37:34Z</time>
      </trkpt>
      <trkpt lat="43.6838" lon="3.71646">
        <ele>286.61</ele>
        <time>2022-02-17T10:37:52Z</time>
      </trkpt>
      <trkpt lat="43.68378" lon="3.71646">
        <ele>285.17</ele>
        <time>2022-02-17T10:38:16Z</time>
      </trkpt>
      <trkpt lat="43.68379" lon="3.71645">
        <ele>284.69</ele>
        <time>2022-02-17T10:38:30Z</time>
      </trkpt>
      <trkpt lat="43.68379" lon="3.71644">
        <ele>284.21</ele>
        <time>2022-02-17T10:38:49Z</time>
      </trkpt>
      <trkpt lat="43.68378" lon="3.71643">
        <ele>282.77</ele>
        <time>2022-02-17T10:39:39Z</time>
      </trkpt>
      <trkpt lat="43.68377" lon="3.71642">
        <ele>283.25</ele>
        <time>2022-02-17T10:40:23Z</time>
      </trkpt>
      <trkpt lat="43.6838" lon="3.71637">
        <ele>283.25</ele>
        <time>2022-02-17T10:41:09Z</time>
      </trkpt>
      <trkpt lat="43.68382" lon="3.71607">
        <ele>281.8</ele>
        <time>2022-02-17T10:41:39Z</time>
      </trkpt>
      <trkpt lat="43.68378" lon="3.71577">
        <ele>280.36</ele>
        <time>2022-02-17T10:42:06Z</time>
      </trkpt>
      <trkpt lat="43.68369" lon="3.7155">
        <ele>278.44</ele>
        <time>2022-02-17T10:42:31Z</time>
      </trkpt>
      <trkpt lat="43.68367" lon="3.71517">
        <ele>276.52</ele>
        <time>2022-02-17T10:42:57Z</time>
      </trkpt>
      <trkpt lat="43.68371" lon="3.71493">
        <ele>275.07</ele>
        <time>2022-02-17T10:43:18Z</time>
      </trkpt>
      <trkpt lat="43.68369" lon="3.71471">
        <ele>273.63</ele>
        <time>2022-02-17T10:43:34Z</time>
      </trkpt>
      <trkpt lat="43.68369" lon="3.71451">
        <ele>273.15</ele>
        <time>2022-02-17T10:43:46Z</time>
      </trkpt>
      <trkpt lat="43.6837" lon="3.71435">
        <ele>272.19</ele>
        <time>2022-02-17T10:43:58Z</time>
      </trkpt>
      <trkpt lat="43.68365" lon="3.7142">
        <ele>271.23</ele>
        <time>2022-02-17T10:44:11Z</time>
      </trkpt>
      <trkpt lat="43.68364" lon="3.71413">
        <ele>271.23</ele>
        <time>2022-02-17T10:44:15Z</time>
      </trkpt>
      <trkpt lat="43.68361" lon="3.71404">
        <ele>271.23</ele>
        <time>2022-02-17T10:44:21Z</time>
      </trkpt>
      <trkpt lat="43.68355" lon="3.71393">
        <ele>271.23</ele>
        <time>2022-02-17T10:44:30Z</time>
      </trkpt>
      <trkpt lat="43.68352" lon="3.71372">
        <ele>270.75</ele>
        <time>2022-02-17T10:44:47Z</time>
      </trkpt>
      <trkpt lat="43.68346" lon="3.71338">
        <ele>270.75</ele>
        <time>2022-02-17T10:45:11Z</time>
      </trkpt>
      <trkpt lat="43.68334" lon="3.71318">
        <ele>272.19</ele>
        <time>2022-02-17T10:45:29Z</time>
      </trkpt>
      <trkpt lat="43.68328" lon="3.71313">
        <ele>272.19</ele>
        <time>2022-02-17T10:45:37Z</time>
      </trkpt>
      <trkpt lat="43.68321" lon="3.71304">
        <ele>272.19</ele>
        <time>2022-02-17T10:45:46Z</time>
      </trkpt>
      <trkpt lat="43.68317" lon="3.71294">
        <ele>272.19</ele>
        <time>2022-02-17T10:45:53Z</time>
      </trkpt>
      <trkpt lat="43.68307" lon="3.71268">
        <ele>273.15</ele>
        <time>2022-02-17T10:46:14Z</time>
      </trkpt>
      <trkpt lat="43.68304" lon="3.71248">
        <ele>272.67</ele>
        <time>2022-02-17T10:46:27Z</time>
      </trkpt>
      <trkpt lat="43.68297" lon="3.71226">
        <ele>272.67</ele>
        <time>2022-02-17T10:46:43Z</time>
      </trkpt>
      <trkpt lat="43.68291" lon="3.71195">
        <ele>272.67</ele>
        <time>2022-02-17T10:47:10Z</time>
      </trkpt>
      <trkpt lat="43.68281" lon="3.71165">
        <ele>274.11</ele>
        <time>2022-02-17T10:47:33Z</time>
      </trkpt>
      <trkpt lat="43.68283" lon="3.71157">
        <ele>273.15</ele>
        <time>2022-02-17T10:47:39Z</time>
      </trkpt>
      <trkpt lat="43.6829" lon="3.71139">
        <ele>271.23</ele>
        <time>2022-02-17T10:47:53Z</time>
      </trkpt>
      <trkpt lat="43.68291" lon="3.71135">
        <ele>271.23</ele>
        <time>2022-02-17T10:47:56Z</time>
      </trkpt>
      <trkpt lat="43.68295" lon="3.71118">
        <ele>270.27</ele>
        <time>2022-02-17T10:48:08Z</time>
      </trkpt>
      <trkpt lat="43.68302" lon="3.71098">
        <ele>269.79</ele>
        <time>2022-02-17T10:48:23Z</time>
      </trkpt>
      <trkpt lat="43.68313" lon="3.7108">
        <ele>269.31</ele>
        <time>2022-02-17T10:48:38Z</time>
      </trkpt>
      <trkpt lat="43.68318" lon="3.71067">
        <ele>270.27</ele>
        <time>2022-02-17T10:48:47Z</time>
      </trkpt>
      <trkpt lat="43.68328" lon="3.71044">
        <ele>270.27</ele>
        <time>2022-02-17T10:49:04Z</time>
      </trkpt>
      <trkpt lat="43.68332" lon="3.71036">
        <ele>270.75</ele>
        <time>2022-02-17T10:49:11Z</time>
      </trkpt>
      <trkpt lat="43.68334" lon="3.71031">
        <ele>271.23</ele>
        <time>2022-02-17T10:49:14Z</time>
      </trkpt>
      <trkpt lat="43.68352" lon="3.71014">
        <ele>272.67</ele>
        <time>2022-02-17T10:49:36Z</time>
      </trkpt>
      <trkpt lat="43.68369" lon="3.70997">
        <ele>273.15</ele>
        <time>2022-02-17T10:50:01Z</time>
      </trkpt>
      <trkpt lat="43.68384" lon="3.70992">
        <ele>272.67</ele>
        <time>2022-02-17T10:50:22Z</time>
      </trkpt>
      <trkpt lat="43.68403" lon="3.70989">
        <ele>272.19</ele>
        <time>2022-02-17T10:50:48Z</time>
      </trkpt>
      <trkpt lat="43.68411" lon="3.70984">
        <ele>275.56</ele>
        <time>2022-02-17T10:51:30Z</time>
      </trkpt>
      <trkpt lat="43.68427" lon="3.70985">
        <ele>271.71</ele>
        <time>2022-02-17T10:51:57Z</time>
      </trkpt>
      <trkpt lat="43.68439" lon="3.70985">
        <ele>271.71</ele>
        <time>2022-02-17T10:52:29Z</time>
      </trkpt>
      <trkpt lat="43.68452" lon="3.70984">
        <ele>270.75</ele>
        <time>2022-02-17T10:52:59Z</time>
      </trkpt>
      <trkpt lat="43.6847" lon="3.70983">
        <ele>270.75</ele>
        <time>2022-02-17T10:53:21Z</time>
      </trkpt>
      <trkpt lat="43.68498" lon="3.70989">
        <ele>271.23</ele>
        <time>2022-02-17T10:53:44Z</time>
      </trkpt>
      <trkpt lat="43.68514" lon="3.70997">
        <ele>270.75</ele>
        <time>2022-02-17T10:54:03Z</time>
      </trkpt>
      <trkpt lat="43.68534" lon="3.71004">
        <ele>270.27</ele>
        <time>2022-02-17T10:54:19Z</time>
      </trkpt>
      <trkpt lat="43.68557" lon="3.71018">
        <ele>270.27</ele>
        <time>2022-02-17T10:54:45Z</time>
      </trkpt>
      <trkpt lat="43.68573" lon="3.7103">
        <ele>272.19</ele>
        <time>2022-02-17T10:55:01Z</time>
      </trkpt>
      <trkpt lat="43.68591" lon="3.71049">
        <ele>276.04</ele>
        <time>2022-02-17T10:55:28Z</time>
      </trkpt>
      <trkpt lat="43.68605" lon="3.71062">
        <ele>277.48</ele>
        <time>2022-02-17T10:55:47Z</time>
      </trkpt>
      <trkpt lat="43.6863" lon="3.71069">
        <ele>278.92</ele>
        <time>2022-02-17T10:56:09Z</time>
      </trkpt>
      <trkpt lat="43.68655" lon="3.71074">
        <ele>280.36</ele>
        <time>2022-02-17T10:56:33Z</time>
      </trkpt>
      <trkpt lat="43.68674" lon="3.71082">
        <ele>278.44</ele>
        <time>2022-02-17T10:56:53Z</time>
      </trkpt>
      <trkpt lat="43.68695" lon="3.71096">
        <ele>279.4</ele>
        <time>2022-02-17T10:57:14Z</time>
      </trkpt>
      <trkpt lat="43.68709" lon="3.71106">
        <ele>279.4</ele>
        <time>2022-02-17T10:57:28Z</time>
      </trkpt>
      <trkpt lat="43.68726" lon="3.71112">
        <ele>278.44</ele>
        <time>2022-02-17T10:57:43Z</time>
      </trkpt>
      <trkpt lat="43.6874" lon="3.71119">
        <ele>276.52</ele>
        <time>2022-02-17T10:57:59Z</time>
      </trkpt>
      <trkpt lat="43.68754" lon="3.71128">
        <ele>275.56</ele>
        <time>2022-02-17T10:58:12Z</time>
      </trkpt>
      <trkpt lat="43.68771" lon="3.71154">
        <ele>274.59</ele>
        <time>2022-02-17T10:58:36Z</time>
      </trkpt>
      <trkpt lat="43.68772" lon="3.7117">
        <ele>274.59</ele>
        <time>2022-02-17T10:58:46Z</time>
      </trkpt>
      <trkpt lat="43.68774" lon="3.71184">
        <ele>274.59</ele>
        <time>2022-02-17T10:59:08Z</time>
      </trkpt>
      <trkpt lat="43.68778" lon="3.71187">
        <ele>275.07</ele>
        <time>2022-02-17T10:59:31Z</time>
      </trkpt>
      <trkpt lat="43.68792" lon="3.7119">
        <ele>274.59</ele>
        <time>2022-02-17T10:59:47Z</time>
      </trkpt>
      <trkpt lat="43.6881" lon="3.71202">
        <ele>271.23</ele>
        <time>2022-02-17T11:00:09Z</time>
      </trkpt>
      <trkpt lat="43.68825" lon="3.71212">
        <ele>270.75</ele>
        <time>2022-02-17T11:00:31Z</time>
      </trkpt>
      <trkpt lat="43.68848" lon="3.71223">
        <ele>270.75</ele>
        <time>2022-02-17T11:00:55Z</time>
      </trkpt>
      <trkpt lat="43.68855" lon="3.71226">
        <ele>276.52</ele>
        <time>2022-02-17T11:01:16Z</time>
      </trkpt>
      <trkpt lat="43.68857" lon="3.71228">
        <ele>278.44</ele>
        <time>2022-02-17T11:01:49Z</time>
      </trkpt>
      <trkpt lat="43.68865" lon="3.71231">
        <ele>279.4</ele>
        <time>2022-02-17T11:02:16Z</time>
      </trkpt>
      <trkpt lat="43.6888" lon="3.71225">
        <ele>280.36</ele>
        <time>2022-02-17T11:02:35Z</time>
      </trkpt>
      <trkpt lat="43.68888" lon="3.71226">
        <ele>280.36</ele>
        <time>2022-02-17T11:02:56Z</time>
      </trkpt>
      <trkpt lat="43.68894" lon="3.71223">
        <ele>281.8</ele>
        <time>2022-02-17T11:03:19Z</time>
      </trkpt>
      <trkpt lat="43.68902" lon="3.71219">
        <ele>281.8</ele>
        <time>2022-02-17T11:03:32Z</time>
      </trkpt>
      <trkpt lat="43.68922" lon="3.71216">
        <ele>281.8</ele>
        <time>2022-02-17T11:03:48Z</time>
      </trkpt>
      <trkpt lat="43.68937" lon="3.71212">
        <ele>281.32</ele>
        <time>2022-02-17T11:04:03Z</time>
      </trkpt>
      <trkpt lat="43.68938" lon="3.71212">
        <ele>281.32</ele>
        <time>2022-02-17T11:04:04Z</time>
      </trkpt>
      <trkpt lat="43.6896" lon="3.71217">
        <ele>280.36</ele>
        <time>2022-02-17T11:04:21Z</time>
      </trkpt>
      <trkpt lat="43.6898" lon="3.7122">
        <ele>277.48</ele>
        <time>2022-02-17T11:04:43Z</time>
      </trkpt>
      <trkpt lat="43.69" lon="3.71206">
        <ele>275.07</ele>
        <time>2022-02-17T11:05:02Z</time>
      </trkpt>
      <trkpt lat="43.69019" lon="3.71193">
        <ele>273.63</ele>
        <time>2022-02-17T11:05:26Z</time>
      </trkpt>
      <trkpt lat="43.69023" lon="3.71194">
        <ele>273.63</ele>
        <time>2022-02-17T11:05:36Z</time>
      </trkpt>
      <trkpt lat="43.69032" lon="3.7118">
        <ele>274.59</ele>
        <time>2022-02-17T11:06:06Z</time>
      </trkpt>
      <trkpt lat="43.69041" lon="3.71168">
        <ele>274.59</ele>
        <time>2022-02-17T11:06:31Z</time>
      </trkpt>
      <trkpt lat="43.69044" lon="3.71167">
        <ele>275.07</ele>
        <time>2022-02-17T11:07:36Z</time>
      </trkpt>
      <trkpt lat="43.69044" lon="3.71167">
        <ele>275.07</ele>
        <time>2022-02-17T11:08:13Z</time>
      </trkpt>
      <trkpt lat="43.69047" lon="3.71166">
        <ele>275.07</ele>
        <time>2022-02-17T11:08:23Z</time>
      </trkpt>
      <trkpt lat="43.6906" lon="3.71155">
        <ele>274.59</ele>
        <time>2022-02-17T11:08:42Z</time>
      </trkpt>
      <trkpt lat="43.69072" lon="3.71149">
        <ele>273.63</ele>
        <time>2022-02-17T11:09:00Z</time>
      </trkpt>
      <trkpt lat="43.69087" lon="3.7114">
        <ele>272.19</ele>
        <time>2022-02-17T11:09:19Z</time>
      </trkpt>
      <trkpt lat="43.69089" lon="3.71137">
        <ele>272.19</ele>
        <time>2022-02-17T11:09:22Z</time>
      </trkpt>
      <trkpt lat="43.69099" lon="3.71129">
        <ele>270.75</ele>
        <time>2022-02-17T11:09:38Z</time>
      </trkpt>
      <trkpt lat="43.69117" lon="3.71111">
        <ele>268.35</ele>
        <time>2022-02-17T11:10:00Z</time>
      </trkpt>
      <trkpt lat="43.69131" lon="3.71094">
        <ele>266.42</ele>
        <time>2022-02-17T11:10:19Z</time>
      </trkpt>
      <trkpt lat="43.69131" lon="3.71093">
        <ele>265.94</ele>
        <time>2022-02-17T11:10:20Z</time>
      </trkpt>
      <trkpt lat="43.69146" lon="3.71077">
        <ele>264.5</ele>
        <time>2022-02-17T11:10:38Z</time>
      </trkpt>
      <trkpt lat="43.6915" lon="3.71072">
        <ele>264.02</ele>
        <time>2022-02-17T11:10:43Z</time>
      </trkpt>
      <trkpt lat="43.69164" lon="3.7106">
        <ele>261.62</ele>
        <time>2022-02-17T11:11:00Z</time>
      </trkpt>
      <trkpt lat="43.69182" lon="3.71049">
        <ele>258.25</ele>
        <time>2022-02-17T11:11:20Z</time>
      </trkpt>
      <trkpt lat="43.69201" lon="3.71035">
        <ele>257.77</ele>
        <time>2022-02-17T11:11:42Z</time>
      </trkpt>
      <trkpt lat="43.69226" lon="3.71013">
        <ele>257.29</ele>
        <time>2022-02-17T11:12:07Z</time>
      </trkpt>
      <trkpt lat="43.6924" lon="3.71001">
        <ele>257.77</ele>
        <time>2022-02-17T11:12:22Z</time>
      </trkpt>
      <trkpt lat="43.69247" lon="3.71001">
        <ele>256.81</ele>
        <time>2022-02-17T11:12:30Z</time>
      </trkpt>
      <trkpt lat="43.69267" lon="3.70997">
        <ele>255.85</ele>
        <time>2022-02-17T11:12:48Z</time>
      </trkpt>
      <trkpt lat="43.69289" lon="3.70997">
        <ele>254.89</ele>
        <time>2022-02-17T11:13:11Z</time>
      </trkpt>
      <trkpt lat="43.69308" lon="3.71004">
        <ele>252.96</ele>
        <time>2022-02-17T11:13:31Z</time>
      </trkpt>
      <trkpt lat="43.69327" lon="3.71015">
        <ele>252</ele>
        <time>2022-02-17T11:13:49Z</time>
      </trkpt>
      <trkpt lat="43.69338" lon="3.71025">
        <ele>250.56</ele>
        <time>2022-02-17T11:14:02Z</time>
      </trkpt>
      <trkpt lat="43.69356" lon="3.7104">
        <ele>248.64</ele>
        <time>2022-02-17T11:14:23Z</time>
      </trkpt>
      <trkpt lat="43.69368" lon="3.71046">
        <ele>245.75</ele>
        <time>2022-02-17T11:14:45Z</time>
      </trkpt>
      <trkpt lat="43.69381" lon="3.71051">
        <ele>243.83</ele>
        <time>2022-02-17T11:15:03Z</time>
      </trkpt>
      <trkpt lat="43.69395" lon="3.71058">
        <ele>241.91</ele>
        <time>2022-02-17T11:15:21Z</time>
      </trkpt>
      <trkpt lat="43.69416" lon="3.71065">
        <ele>238.54</ele>
        <time>2022-02-17T11:15:46Z</time>
      </trkpt>
      <trkpt lat="43.69441" lon="3.71075">
        <ele>234.22</ele>
        <time>2022-02-17T11:16:14Z</time>
      </trkpt>
      <trkpt lat="43.69462" lon="3.71088">
        <ele>229.89</ele>
        <time>2022-02-17T11:16:37Z</time>
      </trkpt>
      <trkpt lat="43.69484" lon="3.71098">
        <ele>226.05</ele>
        <time>2022-02-17T11:17:02Z</time>
      </trkpt>
      <trkpt lat="43.69499" lon="3.71108">
        <ele>223.16</ele>
        <time>2022-02-17T11:17:22Z</time>
      </trkpt>
      <trkpt lat="43.69511" lon="3.71125">
        <ele>220.76</ele>
        <time>2022-02-17T11:17:40Z</time>
      </trkpt>
      <trkpt lat="43.69526" lon="3.7114">
        <ele>216.91</ele>
        <time>2022-02-17T11:18:01Z</time>
      </trkpt>
      <trkpt lat="43.69537" lon="3.7116">
        <ele>214.03</ele>
        <time>2022-02-17T11:18:24Z</time>
      </trkpt>
      <trkpt lat="43.69547" lon="3.71176">
        <ele>211.63</ele>
        <time>2022-02-17T11:18:42Z</time>
      </trkpt>
      <trkpt lat="43.69557" lon="3.71188">
        <ele>209.22</ele>
        <time>2022-02-17T11:18:58Z</time>
      </trkpt>
      <trkpt lat="43.69563" lon="3.71199">
        <ele>207.78</ele>
        <time>2022-02-17T11:19:07Z</time>
      </trkpt>
      <trkpt lat="43.69576" lon="3.71225">
        <ele>205.86</ele>
        <time>2022-02-17T11:19:30Z</time>
      </trkpt>
      <trkpt lat="43.69592" lon="3.71235">
        <ele>202.98</ele>
        <time>2022-02-17T11:19:53Z</time>
      </trkpt>
      <trkpt lat="43.69602" lon="3.71241">
        <ele>202.49</ele>
        <time>2022-02-17T11:20:06Z</time>
      </trkpt>
      <trkpt lat="43.69615" lon="3.71262">
        <ele>201.53</ele>
        <time>2022-02-17T11:20:25Z</time>
      </trkpt>
      <trkpt lat="43.69626" lon="3.71286">
        <ele>199.61</ele>
        <time>2022-02-17T11:20:45Z</time>
      </trkpt>
      <trkpt lat="43.6964" lon="3.71308">
        <ele>197.21</ele>
        <time>2022-02-17T11:21:10Z</time>
      </trkpt>
      <trkpt lat="43.69651" lon="3.71332">
        <ele>195.77</ele>
        <time>2022-02-17T11:21:31Z</time>
      </trkpt>
      <trkpt lat="43.69656" lon="3.71357">
        <ele>193.84</ele>
        <time>2022-02-17T11:21:52Z</time>
      </trkpt>
      <trkpt lat="43.69658" lon="3.71384">
        <ele>193.36</ele>
        <time>2022-02-17T11:22:15Z</time>
      </trkpt>
      <trkpt lat="43.69666" lon="3.71415">
        <ele>191.92</ele>
        <time>2022-02-17T11:22:41Z</time>
      </trkpt>
      <trkpt lat="43.69668" lon="3.71443">
        <ele>189.04</ele>
        <time>2022-02-17T11:23:01Z</time>
      </trkpt>
      <trkpt lat="43.69667" lon="3.7145">
        <ele>188.56</ele>
        <time>2022-02-17T11:23:07Z</time>
      </trkpt>
      <trkpt lat="43.69669" lon="3.71476">
        <ele>186.63</ele>
        <time>2022-02-17T11:23:30Z</time>
      </trkpt>
      <trkpt lat="43.69669" lon="3.7148">
        <ele>186.15</ele>
        <time>2022-02-17T11:23:38Z</time>
      </trkpt>
      <trkpt lat="43.69673" lon="3.71506">
        <ele>184.23</ele>
        <time>2022-02-17T11:24:05Z</time>
      </trkpt>
      <trkpt lat="43.69678" lon="3.71522">
        <ele>182.31</ele>
        <time>2022-02-17T11:24:22Z</time>
      </trkpt>
      <trkpt lat="43.69678" lon="3.7154">
        <ele>180.87</ele>
        <time>2022-02-17T11:24:41Z</time>
      </trkpt>
      <trkpt lat="43.69676" lon="3.71555">
        <ele>179.42</ele>
        <time>2022-02-17T11:24:59Z</time>
      </trkpt>
      <trkpt lat="43.69673" lon="3.71572">
        <ele>178.46</ele>
        <time>2022-02-17T11:25:16Z</time>
      </trkpt>
      <trkpt lat="43.69671" lon="3.71586">
        <ele>177.5</ele>
        <time>2022-02-17T11:25:33Z</time>
      </trkpt>
      <trkpt lat="43.69668" lon="3.71602">
        <ele>176.54</ele>
        <time>2022-02-17T11:25:54Z</time>
      </trkpt>
      <trkpt lat="43.69664" lon="3.71605">
        <ele>176.06</ele>
        <time>2022-02-17T11:25:56Z</time>
      </trkpt>
      <trkpt lat="43.69662" lon="3.71634">
        <ele>174.62</ele>
        <time>2022-02-17T11:26:20Z</time>
      </trkpt>
      <trkpt lat="43.6966" lon="3.71641">
        <ele>173.66</ele>
        <time>2022-02-17T11:26:27Z</time>
      </trkpt>
      <trkpt lat="43.69661" lon="3.7166">
        <ele>172.21</ele>
        <time>2022-02-17T11:26:43Z</time>
      </trkpt>
      <trkpt lat="43.69669" lon="3.71678">
        <ele>167.41</ele>
        <time>2022-02-17T11:27:02Z</time>
      </trkpt>
      <trkpt lat="43.69672" lon="3.7169">
        <ele>165.48</ele>
        <time>2022-02-17T11:27:15Z</time>
      </trkpt>
      <trkpt lat="43.69675" lon="3.71696">
        <ele>163.56</ele>
        <time>2022-02-17T11:27:21Z</time>
      </trkpt>
      <trkpt lat="43.6968" lon="3.71705">
        <ele>157.79</ele>
        <time>2022-02-17T11:27:41Z</time>
      </trkpt>
      <trkpt lat="43.69679" lon="3.71707">
        <ele>152.99</ele>
        <time>2022-02-17T11:28:04Z</time>
      </trkpt>
      <trkpt lat="43.69679" lon="3.71707">
        <ele>152.99</ele>
        <time>2022-02-17T11:28:05Z</time>
      </trkpt>
      <trkpt lat="43.69679" lon="3.71705">
        <ele>150.1</ele>
        <time>2022-02-17T11:28:25Z</time>
      </trkpt>
      <trkpt lat="43.69679" lon="3.71706">
        <ele>148.66</ele>
        <time>2022-02-17T11:28:49Z</time>
      </trkpt>
      <trkpt lat="43.6968" lon="3.71706">
        <ele>147.7</ele>
        <time>2022-02-17T11:29:16Z</time>
      </trkpt>
      <trkpt lat="43.69684" lon="3.71696">
        <ele>137.61</ele>
        <time>2022-02-17T12:52:36Z</time>
      </trkpt>
      <trkpt lat="43.69683" lon="3.71692">
        <ele>136.64</ele>
        <time>2022-02-17T12:53:12Z</time>
      </trkpt>
      <trkpt lat="43.69682" lon="3.71693">
        <ele>136.64</ele>
        <time>2022-02-17T12:54:01Z</time>
      </trkpt>
      <trkpt lat="43.69681" lon="3.71695">
        <ele>137.13</ele>
        <time>2022-02-17T12:54:26Z</time>
      </trkpt>
      <trkpt lat="43.69681" lon="3.71695">
        <ele>137.13</ele>
        <time>2022-02-17T12:54:28Z</time>
      </trkpt>
      <trkpt lat="43.69681" lon="3.71704">
        <ele>136.16</ele>
        <time>2022-02-17T12:54:49Z</time>
      </trkpt>
      <trkpt lat="43.6969" lon="3.71718">
        <ele>135.2</ele>
        <time>2022-02-17T12:55:05Z</time>
      </trkpt>
      <trkpt lat="43.69691" lon="3.71723">
        <ele>134.72</ele>
        <time>2022-02-17T12:55:09Z</time>
      </trkpt>
      <trkpt lat="43.697" lon="3.71734">
        <ele>133.76</ele>
        <time>2022-02-17T12:55:21Z</time>
      </trkpt>
      <trkpt lat="43.69707" lon="3.71737">
        <ele>133.28</ele>
        <time>2022-02-17T12:55:28Z</time>
      </trkpt>
      <trkpt lat="43.6971" lon="3.71739">
        <ele>132.8</ele>
        <time>2022-02-17T12:55:31Z</time>
      </trkpt>
      <trkpt lat="43.69715" lon="3.71744">
        <ele>132.32</ele>
        <time>2022-02-17T12:55:36Z</time>
      </trkpt>
      <trkpt lat="43.69725" lon="3.7175">
        <ele>132.32</ele>
        <time>2022-02-17T12:55:45Z</time>
      </trkpt>
      <trkpt lat="43.69731" lon="3.71756">
        <ele>131.84</ele>
        <time>2022-02-17T12:55:51Z</time>
      </trkpt>
      <trkpt lat="43.69741" lon="3.71767">
        <ele>131.36</ele>
        <time>2022-02-17T12:56:02Z</time>
      </trkpt>
      <trkpt lat="43.69743" lon="3.71769">
        <ele>130.88</ele>
        <time>2022-02-17T12:56:05Z</time>
      </trkpt>
      <trkpt lat="43.69752" lon="3.71781">
        <ele>129.92</ele>
        <time>2022-02-17T12:56:17Z</time>
      </trkpt>
      <trkpt lat="43.69755" lon="3.71785">
        <ele>129.92</ele>
        <time>2022-02-17T12:56:22Z</time>
      </trkpt>
      <trkpt lat="43.69761" lon="3.71796">
        <ele>129.43</ele>
        <time>2022-02-17T12:56:38Z</time>
      </trkpt>
      <trkpt lat="43.69765" lon="3.718">
        <ele>129.43</ele>
        <time>2022-02-17T12:56:42Z</time>
      </trkpt>
      <trkpt lat="43.69782" lon="3.71823">
        <ele>129.43</ele>
        <time>2022-02-17T12:57:00Z</time>
      </trkpt>
      <trkpt lat="43.69801" lon="3.71839">
        <ele>131.36</ele>
        <time>2022-02-17T12:57:17Z</time>
      </trkpt>
      <trkpt lat="43.69821" lon="3.71839">
        <ele>127.99</ele>
        <time>2022-02-17T12:57:34Z</time>
      </trkpt>
      <trkpt lat="43.69834" lon="3.71832">
        <ele>126.55</ele>
        <time>2022-02-17T12:57:48Z</time>
      </trkpt>
      <trkpt lat="43.69842" lon="3.71828">
        <ele>126.55</ele>
        <time>2022-02-17T12:57:57Z</time>
      </trkpt>
      <trkpt lat="43.69844" lon="3.71827">
        <ele>126.55</ele>
        <time>2022-02-17T12:57:59Z</time>
      </trkpt>
      <trkpt lat="43.69848" lon="3.71823">
        <ele>126.07</ele>
        <time>2022-02-17T12:58:03Z</time>
      </trkpt>
      <trkpt lat="43.69851" lon="3.71822">
        <ele>126.07</ele>
        <time>2022-02-17T12:58:06Z</time>
      </trkpt>
      <trkpt lat="43.6987" lon="3.71822">
        <ele>124.63</ele>
        <time>2022-02-17T12:58:21Z</time>
      </trkpt>
      <trkpt lat="43.69889" lon="3.71831">
        <ele>123.19</ele>
        <time>2022-02-17T12:58:39Z</time>
      </trkpt>
      <trkpt lat="43.69901" lon="3.71844">
        <ele>123.19</ele>
        <time>2022-02-17T12:58:54Z</time>
      </trkpt>
      <trkpt lat="43.69904" lon="3.7185">
        <ele>124.15</ele>
        <time>2022-02-17T12:59:01Z</time>
      </trkpt>
      <trkpt lat="43.69908" lon="3.71852">
        <ele>124.63</ele>
        <time>2022-02-17T12:59:05Z</time>
      </trkpt>
      <trkpt lat="43.69929" lon="3.71861">
        <ele>125.11</ele>
        <time>2022-02-17T12:59:22Z</time>
      </trkpt>
      <trkpt lat="43.69951" lon="3.71868">
        <ele>124.63</ele>
        <time>2022-02-17T12:59:41Z</time>
      </trkpt>
      <trkpt lat="43.6996" lon="3.71871">
        <ele>125.11</ele>
        <time>2022-02-17T12:59:49Z</time>
      </trkpt>
      <trkpt lat="43.69965" lon="3.71871">
        <ele>125.11</ele>
        <time>2022-02-17T12:59:53Z</time>
      </trkpt>
      <trkpt lat="43.69982" lon="3.71867">
        <ele>125.11</ele>
        <time>2022-02-17T13:00:07Z</time>
      </trkpt>
      <trkpt lat="43.69994" lon="3.71863">
        <ele>125.59</ele>
        <time>2022-02-17T13:00:18Z</time>
      </trkpt>
      <trkpt lat="43.7" lon="3.7186">
        <ele>125.59</ele>
        <time>2022-02-17T13:00:26Z</time>
      </trkpt>
      <trkpt lat="43.70006" lon="3.71861">
        <ele>126.07</ele>
        <time>2022-02-17T13:00:32Z</time>
      </trkpt>
      <trkpt lat="43.70011" lon="3.71864">
        <ele>127.03</ele>
        <time>2022-02-17T13:00:43Z</time>
      </trkpt>
      <trkpt lat="43.70014" lon="3.7187">
        <ele>127.51</ele>
        <time>2022-02-17T13:00:47Z</time>
      </trkpt>
      <trkpt lat="43.70029" lon="3.71883">
        <ele>129.43</ele>
        <time>2022-02-17T13:01:04Z</time>
      </trkpt>
      <trkpt lat="43.70037" lon="3.71889">
        <ele>130.88</ele>
        <time>2022-02-17T13:01:14Z</time>
      </trkpt>
      <trkpt lat="43.70049" lon="3.71897">
        <ele>132.8</ele>
        <time>2022-02-17T13:01:27Z</time>
      </trkpt>
      <trkpt lat="43.70066" lon="3.71895">
        <ele>134.72</ele>
        <time>2022-02-17T13:01:43Z</time>
      </trkpt>
      <trkpt lat="43.70081" lon="3.71902">
        <ele>136.64</ele>
        <time>2022-02-17T13:01:57Z</time>
      </trkpt>
      <trkpt lat="43.70099" lon="3.71916">
        <ele>139.53</ele>
        <time>2022-02-17T13:02:16Z</time>
      </trkpt>
      <trkpt lat="43.70116" lon="3.71927">
        <ele>139.53</ele>
        <time>2022-02-17T13:02:32Z</time>
      </trkpt>
      <trkpt lat="43.70122" lon="3.71932">
        <ele>140.01</ele>
        <time>2022-02-17T13:02:38Z</time>
      </trkpt>
      <trkpt lat="43.70128" lon="3.71947">
        <ele>143.37</ele>
        <time>2022-02-17T13:02:57Z</time>
      </trkpt>
      <trkpt lat="43.7012" lon="3.71957">
        <ele>143.85</ele>
        <time>2022-02-17T13:03:15Z</time>
      </trkpt>
      <trkpt lat="43.70109" lon="3.71974">
        <ele>143.37</ele>
        <time>2022-02-17T13:03:31Z</time>
      </trkpt>
      <trkpt lat="43.70104" lon="3.71995">
        <ele>142.89</ele>
        <time>2022-02-17T13:03:46Z</time>
      </trkpt>
      <trkpt lat="43.70103" lon="3.71999">
        <ele>142.89</ele>
        <time>2022-02-17T13:03:49Z</time>
      </trkpt>
      <trkpt lat="43.70095" lon="3.7202">
        <ele>141.45</ele>
        <time>2022-02-17T13:04:05Z</time>
      </trkpt>
      <trkpt lat="43.70085" lon="3.72041">
        <ele>140.01</ele>
        <time>2022-02-17T13:04:21Z</time>
      </trkpt>
      <trkpt lat="43.70076" lon="3.72059">
        <ele>139.53</ele>
        <time>2022-02-17T13:04:38Z</time>
      </trkpt>
      <trkpt lat="43.70072" lon="3.72071">
        <ele>139.05</ele>
        <time>2022-02-17T13:04:47Z</time>
      </trkpt>
      <trkpt lat="43.70069" lon="3.72089">
        <ele>140.01</ele>
        <time>2022-02-17T13:05:02Z</time>
      </trkpt>
      <trkpt lat="43.70067" lon="3.72093">
        <ele>140.49</ele>
        <time>2022-02-17T13:05:06Z</time>
      </trkpt>
      <trkpt lat="43.70065" lon="3.72098">
        <ele>140.97</ele>
        <time>2022-02-17T13:05:11Z</time>
      </trkpt>
      <trkpt lat="43.7006" lon="3.72107">
        <ele>141.93</ele>
        <time>2022-02-17T13:05:19Z</time>
      </trkpt>
      <trkpt lat="43.70051" lon="3.72127">
        <ele>144.82</ele>
        <time>2022-02-17T13:05:36Z</time>
      </trkpt>
      <trkpt lat="43.70051" lon="3.72129">
        <ele>144.82</ele>
        <time>2022-02-17T13:05:38Z</time>
      </trkpt>
      <trkpt lat="43.70049" lon="3.72136">
        <ele>145.3</ele>
        <time>2022-02-17T13:05:43Z</time>
      </trkpt>
      <trkpt lat="43.70038" lon="3.72151">
        <ele>145.78</ele>
        <time>2022-02-17T13:05:58Z</time>
      </trkpt>
      <trkpt lat="43.70027" lon="3.72167">
        <ele>147.22</ele>
        <time>2022-02-17T13:06:15Z</time>
      </trkpt>
      <trkpt lat="43.70016" lon="3.72184">
        <ele>150.1</ele>
        <time>2022-02-17T13:06:30Z</time>
      </trkpt>
      <trkpt lat="43.70005" lon="3.72199">
        <ele>152.51</ele>
        <time>2022-02-17T13:06:44Z</time>
      </trkpt>
      <trkpt lat="43.69995" lon="3.72223">
        <ele>153.95</ele>
        <time>2022-02-17T13:07:02Z</time>
      </trkpt>
      <trkpt lat="43.69986" lon="3.72239">
        <ele>155.39</ele>
        <time>2022-02-17T13:07:16Z</time>
      </trkpt>
      <trkpt lat="43.69976" lon="3.72257">
        <ele>155.87</ele>
        <time>2022-02-17T13:07:31Z</time>
      </trkpt>
      <trkpt lat="43.69967" lon="3.72274">
        <ele>157.79</ele>
        <time>2022-02-17T13:07:45Z</time>
      </trkpt>
      <trkpt lat="43.69963" lon="3.72294">
        <ele>160.2</ele>
        <time>2022-02-17T13:08:00Z</time>
      </trkpt>
      <trkpt lat="43.6996" lon="3.72325">
        <ele>160.68</ele>
        <time>2022-02-17T13:08:23Z</time>
      </trkpt>
      <trkpt lat="43.69954" lon="3.72347">
        <ele>160.68</ele>
        <time>2022-02-17T13:08:39Z</time>
      </trkpt>
      <trkpt lat="43.69942" lon="3.72367">
        <ele>161.64</ele>
        <time>2022-02-17T13:08:54Z</time>
      </trkpt>
      <trkpt lat="43.69941" lon="3.72368">
        <ele>161.64</ele>
        <time>2022-02-17T13:08:56Z</time>
      </trkpt>
      <trkpt lat="43.69938" lon="3.72372">
        <ele>161.64</ele>
        <time>2022-02-17T13:09:00Z</time>
      </trkpt>
      <trkpt lat="43.69933" lon="3.72379">
        <ele>162.12</ele>
        <time>2022-02-17T13:09:04Z</time>
      </trkpt>
      <trkpt lat="43.69925" lon="3.72388">
        <ele>162.12</ele>
        <time>2022-02-17T13:09:12Z</time>
      </trkpt>
      <trkpt lat="43.69918" lon="3.72397">
        <ele>162.12</ele>
        <time>2022-02-17T13:09:19Z</time>
      </trkpt>
      <trkpt lat="43.6991" lon="3.72409">
        <ele>163.08</ele>
        <time>2022-02-17T13:09:29Z</time>
      </trkpt>
      <trkpt lat="43.69898" lon="3.7243">
        <ele>164.04</ele>
        <time>2022-02-17T13:09:45Z</time>
      </trkpt>
      <trkpt lat="43.69882" lon="3.72446">
        <ele>165.48</ele>
        <time>2022-02-17T13:10:02Z</time>
      </trkpt>
      <trkpt lat="43.69871" lon="3.72462">
        <ele>166.93</ele>
        <time>2022-02-17T13:10:16Z</time>
      </trkpt>
      <trkpt lat="43.69864" lon="3.72472">
        <ele>167.89</ele>
        <time>2022-02-17T13:10:25Z</time>
      </trkpt>
      <trkpt lat="43.69863" lon="3.72474">
        <ele>167.89</ele>
        <time>2022-02-17T13:10:27Z</time>
      </trkpt>
      <trkpt lat="43.69861" lon="3.7248">
        <ele>167.89</ele>
        <time>2022-02-17T13:10:31Z</time>
      </trkpt>
      <trkpt lat="43.69849" lon="3.72495">
        <ele>166.93</ele>
        <time>2022-02-17T13:10:46Z</time>
      </trkpt>
      <trkpt lat="43.69833" lon="3.72513">
        <ele>163.08</ele>
        <time>2022-02-17T13:11:08Z</time>
      </trkpt>
      <trkpt lat="43.69824" lon="3.72544">
        <ele>160.2</ele>
        <time>2022-02-17T13:11:31Z</time>
      </trkpt>
      <trkpt lat="43.69816" lon="3.72582">
        <ele>159.72</ele>
        <time>2022-02-17T13:11:56Z</time>
      </trkpt>
      <trkpt lat="43.69805" lon="3.72601">
        <ele>160.68</ele>
        <time>2022-02-17T13:12:13Z</time>
      </trkpt>
      <trkpt lat="43.69782" lon="3.7261">
        <ele>161.64</ele>
        <time>2022-02-17T13:12:31Z</time>
      </trkpt>
      <trkpt lat="43.69771" lon="3.72615">
        <ele>164.52</ele>
        <time>2022-02-17T13:12:43Z</time>
      </trkpt>
      <trkpt lat="43.69753" lon="3.72626">
        <ele>163.56</ele>
        <time>2022-02-17T13:12:59Z</time>
      </trkpt>
      <trkpt lat="43.69739" lon="3.72634">
        <ele>162.12</ele>
        <time>2022-02-17T13:13:13Z</time>
      </trkpt>
      <trkpt lat="43.69731" lon="3.7264">
        <ele>157.79</ele>
        <time>2022-02-17T13:13:28Z</time>
      </trkpt>
      <trkpt lat="43.69731" lon="3.72642">
        <ele>147.7</ele>
        <time>2022-02-17T13:13:57Z</time>
      </trkpt>
      <trkpt lat="43.69721" lon="3.7264">
        <ele>144.82</ele>
        <time>2022-02-17T13:14:13Z</time>
      </trkpt>
      <trkpt lat="43.69711" lon="3.72635">
        <ele>143.37</ele>
        <time>2022-02-17T13:14:22Z</time>
      </trkpt>
      <trkpt lat="43.69688" lon="3.72633">
        <ele>140.97</ele>
        <time>2022-02-17T13:14:47Z</time>
      </trkpt>
      <trkpt lat="43.69667" lon="3.72638">
        <ele>139.05</ele>
        <time>2022-02-17T13:15:09Z</time>
      </trkpt>
      <trkpt lat="43.69648" lon="3.72643">
        <ele>138.57</ele>
        <time>2022-02-17T13:15:26Z</time>
      </trkpt>
      <trkpt lat="43.69631" lon="3.72645">
        <ele>138.57</ele>
        <time>2022-02-17T13:15:42Z</time>
      </trkpt>
      <trkpt lat="43.69614" lon="3.72651">
        <ele>139.53</ele>
        <time>2022-02-17T13:16:00Z</time>
      </trkpt>
      <trkpt lat="43.69592" lon="3.72655">
        <ele>141.45</ele>
        <time>2022-02-17T13:16:24Z</time>
      </trkpt>
      <trkpt lat="43.69575" lon="3.72659">
        <ele>143.85</ele>
        <time>2022-02-17T13:16:45Z</time>
      </trkpt>
      <trkpt lat="43.69554" lon="3.72668">
        <ele>146.26</ele>
        <time>2022-02-17T13:17:10Z</time>
      </trkpt>
      <trkpt lat="43.6955" lon="3.72687">
        <ele>147.7</ele>
        <time>2022-02-17T13:17:31Z</time>
      </trkpt>
      <trkpt lat="43.69535" lon="3.72695">
        <ele>151.06</ele>
        <time>2022-02-17T13:17:54Z</time>
      </trkpt>
      <trkpt lat="43.69522" lon="3.72708">
        <ele>154.91</ele>
        <time>2022-02-17T13:18:16Z</time>
      </trkpt>
      <trkpt lat="43.69508" lon="3.72715">
        <ele>159.72</ele>
        <time>2022-02-17T13:18:41Z</time>
      </trkpt>
      <trkpt lat="43.69498" lon="3.72724">
        <ele>163.08</ele>
        <time>2022-02-17T13:18:58Z</time>
      </trkpt>
      <trkpt lat="43.69485" lon="3.72735">
        <ele>167.41</ele>
        <time>2022-02-17T13:19:22Z</time>
      </trkpt>
      <trkpt lat="43.69469" lon="3.72747">
        <ele>172.21</ele>
        <time>2022-02-17T13:19:47Z</time>
      </trkpt>
      <trkpt lat="43.69457" lon="3.72761">
        <ele>177.02</ele>
        <time>2022-02-17T13:20:11Z</time>
      </trkpt>
      <trkpt lat="43.69445" lon="3.72777">
        <ele>181.83</ele>
        <time>2022-02-17T13:20:36Z</time>
      </trkpt>
      <trkpt lat="43.69436" lon="3.72787">
        <ele>186.63</ele>
        <time>2022-02-17T13:20:55Z</time>
      </trkpt>
      <trkpt lat="43.69427" lon="3.72799">
        <ele>186.15</ele>
        <time>2022-02-17T13:21:18Z</time>
      </trkpt>
      <trkpt lat="43.69418" lon="3.72814">
        <ele>185.67</ele>
        <time>2022-02-17T13:21:37Z</time>
      </trkpt>
      <trkpt lat="43.69401" lon="3.72826">
        <ele>185.67</ele>
        <time>2022-02-17T13:22:02Z</time>
      </trkpt>
      <trkpt lat="43.69382" lon="3.72835">
        <ele>185.19</ele>
        <time>2022-02-17T13:22:26Z</time>
      </trkpt>
      <trkpt lat="43.69369" lon="3.72852">
        <ele>186.63</ele>
        <time>2022-02-17T13:22:50Z</time>
      </trkpt>
      <trkpt lat="43.69367" lon="3.72854">
        <ele>186.63</ele>
        <time>2022-02-17T13:22:52Z</time>
      </trkpt>
      <trkpt lat="43.69362" lon="3.72863">
        <ele>186.63</ele>
        <time>2022-02-17T13:23:01Z</time>
      </trkpt>
      <trkpt lat="43.69346" lon="3.72879">
        <ele>187.59</ele>
        <time>2022-02-17T13:23:21Z</time>
      </trkpt>
      <trkpt lat="43.69336" lon="3.72874">
        <ele>185.19</ele>
        <time>2022-02-17T13:23:42Z</time>
      </trkpt>
      <trkpt lat="43.69335" lon="3.72874">
        <ele>182.79</ele>
        <time>2022-02-17T13:24:11Z</time>
      </trkpt>
      <trkpt lat="43.69326" lon="3.72869">
        <ele>177.98</ele>
        <time>2022-02-17T13:24:45Z</time>
      </trkpt>
      <trkpt lat="43.69314" lon="3.72873">
        <ele>176.54</ele>
        <time>2022-02-17T13:25:05Z</time>
      </trkpt>
      <trkpt lat="43.69303" lon="3.72862">
        <ele>175.1</ele>
        <time>2022-02-17T13:25:24Z</time>
      </trkpt>
      <trkpt lat="43.69285" lon="3.72854">
        <ele>173.17</ele>
        <time>2022-02-17T13:25:47Z</time>
      </trkpt>
      <trkpt lat="43.6927" lon="3.72854">
        <ele>172.69</ele>
        <time>2022-02-17T13:26:09Z</time>
      </trkpt>
      <trkpt lat="43.69245" lon="3.72839">
        <ele>172.69</ele>
        <time>2022-02-17T13:26:33Z</time>
      </trkpt>
      <trkpt lat="43.6923" lon="3.72812">
        <ele>170.77</ele>
        <time>2022-02-17T13:26:59Z</time>
      </trkpt>
      <trkpt lat="43.69209" lon="3.72815">
        <ele>170.77</ele>
        <time>2022-02-17T13:27:24Z</time>
      </trkpt>
      <trkpt lat="43.69196" lon="3.72825">
        <ele>171.25</ele>
        <time>2022-02-17T13:27:47Z</time>
      </trkpt>
      <trkpt lat="43.69181" lon="3.72825">
        <ele>172.69</ele>
        <time>2022-02-17T13:28:08Z</time>
      </trkpt>
      <trkpt lat="43.69164" lon="3.72823">
        <ele>174.62</ele>
        <time>2022-02-17T13:28:31Z</time>
      </trkpt>
      <trkpt lat="43.69143" lon="3.72814">
        <ele>176.54</ele>
        <time>2022-02-17T13:28:56Z</time>
      </trkpt>
      <trkpt lat="43.6912" lon="3.72807">
        <ele>179.42</ele>
        <time>2022-02-17T13:29:21Z</time>
      </trkpt>
      <trkpt lat="43.69109" lon="3.72818">
        <ele>182.79</ele>
        <time>2022-02-17T13:29:43Z</time>
      </trkpt>
      <trkpt lat="43.69102" lon="3.72837">
        <ele>185.19</ele>
        <time>2022-02-17T13:30:02Z</time>
      </trkpt>
      <trkpt lat="43.69106" lon="3.72867">
        <ele>188.08</ele>
        <time>2022-02-17T13:30:26Z</time>
      </trkpt>
      <trkpt lat="43.69111" lon="3.7288">
        <ele>189.04</ele>
        <time>2022-02-17T13:30:36Z</time>
      </trkpt>
      <trkpt lat="43.69115" lon="3.72902">
        <ele>191.44</ele>
        <time>2022-02-17T13:30:56Z</time>
      </trkpt>
      <trkpt lat="43.69119" lon="3.7292">
        <ele>191.44</ele>
        <time>2022-02-17T13:31:16Z</time>
      </trkpt>
      <trkpt lat="43.69127" lon="3.72945">
        <ele>191.44</ele>
        <time>2022-02-17T13:31:35Z</time>
      </trkpt>
      <trkpt lat="43.69127" lon="3.72952">
        <ele>191.44</ele>
        <time>2022-02-17T13:31:39Z</time>
      </trkpt>
      <trkpt lat="43.69126" lon="3.72956">
        <ele>191.44</ele>
        <time>2022-02-17T13:31:41Z</time>
      </trkpt>
      <trkpt lat="43.69128" lon="3.72978">
        <ele>190.96</ele>
        <time>2022-02-17T13:31:54Z</time>
      </trkpt>
      <trkpt lat="43.69134" lon="3.72997">
        <ele>190.48</ele>
        <time>2022-02-17T13:32:09Z</time>
      </trkpt>
      <trkpt lat="43.69147" lon="3.72994">
        <ele>188.08</ele>
        <time>2022-02-17T13:32:21Z</time>
      </trkpt>
      <trkpt lat="43.69161" lon="3.72995">
        <ele>187.11</ele>
        <time>2022-02-17T13:32:41Z</time>
      </trkpt>
      <trkpt lat="43.69168" lon="3.72999">
        <ele>187.11</ele>
        <time>2022-02-17T13:32:51Z</time>
      </trkpt>
      <trkpt lat="43.69179" lon="3.72994">
        <ele>185.67</ele>
        <time>2022-02-17T13:32:59Z</time>
      </trkpt>
      <trkpt lat="43.69186" lon="3.72991">
        <ele>185.67</ele>
        <time>2022-02-17T13:33:11Z</time>
      </trkpt>
      <trkpt lat="43.69185" lon="3.73005">
        <ele>186.15</ele>
        <time>2022-02-17T13:33:33Z</time>
      </trkpt>
      <trkpt lat="43.69187" lon="3.73014">
        <ele>186.15</ele>
        <time>2022-02-17T13:33:46Z</time>
      </trkpt>
      <trkpt lat="43.692" lon="3.73054">
        <ele>186.63</ele>
        <time>2022-02-17T13:34:14Z</time>
      </trkpt>
      <trkpt lat="43.69208" lon="3.73096">
        <ele>186.15</ele>
        <time>2022-02-17T13:34:41Z</time>
      </trkpt>
      <trkpt lat="43.69217" lon="3.73126">
        <ele>186.15</ele>
        <time>2022-02-17T13:35:01Z</time>
      </trkpt>
      <trkpt lat="43.6923" lon="3.73153">
        <ele>186.63</ele>
        <time>2022-02-17T13:35:20Z</time>
      </trkpt>
      <trkpt lat="43.69237" lon="3.73178">
        <ele>187.59</ele>
        <time>2022-02-17T13:35:37Z</time>
      </trkpt>
      <trkpt lat="43.69239" lon="3.73192">
        <ele>188.08</ele>
        <time>2022-02-17T13:35:46Z</time>
      </trkpt>
      <trkpt lat="43.69243" lon="3.73217">
        <ele>190</ele>
        <time>2022-02-17T13:36:01Z</time>
      </trkpt>
      <trkpt lat="43.69243" lon="3.73229">
        <ele>191.44</ele>
        <time>2022-02-17T13:36:09Z</time>
      </trkpt>
      <trkpt lat="43.69239" lon="3.73253">
        <ele>193.36</ele>
        <time>2022-02-17T13:36:25Z</time>
      </trkpt>
      <trkpt lat="43.6923" lon="3.7328">
        <ele>194.8</ele>
        <time>2022-02-17T13:36:42Z</time>
      </trkpt>
      <trkpt lat="43.69227" lon="3.73288">
        <ele>194.8</ele>
        <time>2022-02-17T13:36:48Z</time>
      </trkpt>
      <trkpt lat="43.69222" lon="3.73298">
        <ele>195.77</ele>
        <time>2022-02-17T13:36:55Z</time>
      </trkpt>
      <trkpt lat="43.69216" lon="3.73327">
        <ele>198.17</ele>
        <time>2022-02-17T13:37:12Z</time>
      </trkpt>
      <trkpt lat="43.69217" lon="3.73351">
        <ele>199.61</ele>
        <time>2022-02-17T13:37:29Z</time>
      </trkpt>
      <trkpt lat="43.69216" lon="3.73357">
        <ele>200.09</ele>
        <time>2022-02-17T13:37:33Z</time>
      </trkpt>
      <trkpt lat="43.69227" lon="3.73389">
        <ele>201.53</ele>
        <time>2022-02-17T13:37:57Z</time>
      </trkpt>
      <trkpt lat="43.69238" lon="3.73424">
        <ele>202.98</ele>
        <time>2022-02-17T13:38:21Z</time>
      </trkpt>
      <trkpt lat="43.69241" lon="3.73446">
        <ele>204.9</ele>
        <time>2022-02-17T13:38:38Z</time>
      </trkpt>
      <trkpt lat="43.69248" lon="3.73477">
        <ele>207.78</ele>
        <time>2022-02-17T13:38:59Z</time>
      </trkpt>
      <trkpt lat="43.69252" lon="3.73512">
        <ele>209.22</ele>
        <time>2022-02-17T13:39:23Z</time>
      </trkpt>
      <trkpt lat="43.69261" lon="3.73546">
        <ele>210.67</ele>
        <time>2022-02-17T13:39:46Z</time>
      </trkpt>
      <trkpt lat="43.69271" lon="3.73566">
        <ele>210.19</ele>
        <time>2022-02-17T13:40:01Z</time>
      </trkpt>
      <trkpt lat="43.69274" lon="3.73568">
        <ele>209.7</ele>
        <time>2022-02-17T13:40:04Z</time>
      </trkpt>
      <trkpt lat="43.69279" lon="3.73575">
        <ele>209.7</ele>
        <time>2022-02-17T13:40:11Z</time>
      </trkpt>
      <trkpt lat="43.69294" lon="3.73587">
        <ele>208.26</ele>
        <time>2022-02-17T13:40:29Z</time>
      </trkpt>
      <trkpt lat="43.69303" lon="3.73597">
        <ele>207.3</ele>
        <time>2022-02-17T13:40:48Z</time>
      </trkpt>
      <trkpt lat="43.69301" lon="3.73602">
        <ele>203.94</ele>
        <time>2022-02-17T13:41:13Z</time>
      </trkpt>
      <trkpt lat="43.69299" lon="3.73603">
        <ele>203.46</ele>
        <time>2022-02-17T13:41:16Z</time>
      </trkpt>
      <trkpt lat="43.69286" lon="3.73599">
        <ele>202.01</ele>
        <time>2022-02-17T13:41:30Z</time>
      </trkpt>
      <trkpt lat="43.69288" lon="3.73601">
        <ele>200.09</ele>
        <time>2022-02-17T13:41:57Z</time>
      </trkpt>
      <trkpt lat="43.69291" lon="3.73601">
        <ele>199.61</ele>
        <time>2022-02-17T13:41:59Z</time>
      </trkpt>
      <trkpt lat="43.69302" lon="3.736">
        <ele>196.25</ele>
        <time>2022-02-17T13:42:22Z</time>
      </trkpt>
      <trkpt lat="43.69305" lon="3.73596">
        <ele>194.8</ele>
        <time>2022-02-17T13:42:49Z</time>
      </trkpt>
      <trkpt lat="43.6931" lon="3.73599">
        <ele>193.84</ele>
        <time>2022-02-17T13:43:25Z</time>
      </trkpt>
      <trkpt lat="43.69311" lon="3.736">
        <ele>193.84</ele>
        <time>2022-02-17T13:43:26Z</time>
      </trkpt>
      <trkpt lat="43.69325" lon="3.73609">
        <ele>192.88</ele>
        <time>2022-02-17T13:43:46Z</time>
      </trkpt>
      <trkpt lat="43.69352" lon="3.73617">
        <ele>193.36</ele>
        <time>2022-02-17T13:44:09Z</time>
      </trkpt>
      <trkpt lat="43.69373" lon="3.73628">
        <ele>193.84</ele>
        <time>2022-02-17T13:44:33Z</time>
      </trkpt>
      <trkpt lat="43.69399" lon="3.73637">
        <ele>194.8</ele>
        <time>2022-02-17T13:44:58Z</time>
      </trkpt>
      <trkpt lat="43.69404" lon="3.73641">
        <ele>195.77</ele>
        <time>2022-02-17T13:45:04Z</time>
      </trkpt>
      <trkpt lat="43.69429" lon="3.73659">
        <ele>196.25</ele>
        <time>2022-02-17T13:45:29Z</time>
      </trkpt>
      <trkpt lat="43.69458" lon="3.73665">
        <ele>197.21</ele>
        <time>2022-02-17T13:45:55Z</time>
      </trkpt>
      <trkpt lat="43.69485" lon="3.7367">
        <ele>197.21</ele>
        <time>2022-02-17T13:46:19Z</time>
      </trkpt>
      <trkpt lat="43.69514" lon="3.7368">
        <ele>196.73</ele>
        <time>2022-02-17T13:46:47Z</time>
      </trkpt>
      <trkpt lat="43.69527" lon="3.73701">
        <ele>197.69</ele>
        <time>2022-02-17T13:47:11Z</time>
      </trkpt>
      <trkpt lat="43.69525" lon="3.73712">
        <ele>198.65</ele>
        <time>2022-02-17T13:47:22Z</time>
      </trkpt>
      <trkpt lat="43.69517" lon="3.73737">
        <ele>198.17</ele>
        <time>2022-02-17T13:47:42Z</time>
      </trkpt>
      <trkpt lat="43.69515" lon="3.73762">
        <ele>199.61</ele>
        <time>2022-02-17T13:48:07Z</time>
      </trkpt>
      <trkpt lat="43.69519" lon="3.73793">
        <ele>200.57</ele>
        <time>2022-02-17T13:48:30Z</time>
      </trkpt>
      <trkpt lat="43.69525" lon="3.73812">
        <ele>202.01</ele>
        <time>2022-02-17T13:48:49Z</time>
      </trkpt>
      <trkpt lat="43.69529" lon="3.73823">
        <ele>203.94</ele>
        <time>2022-02-17T13:48:58Z</time>
      </trkpt>
      <trkpt lat="43.69542" lon="3.7385">
        <ele>208.26</ele>
        <time>2022-02-17T13:49:26Z</time>
      </trkpt>
      <trkpt lat="43.69559" lon="3.73865">
        <ele>211.63</ele>
        <time>2022-02-17T13:49:50Z</time>
      </trkpt>
      <trkpt lat="43.69562" lon="3.73859">
        <ele>212.59</ele>
        <time>2022-02-17T13:50:10Z</time>
      </trkpt>
      <trkpt lat="43.6956" lon="3.73864">
        <ele>216.91</ele>
        <time>2022-02-17T13:51:01Z</time>
      </trkpt>
      <trkpt lat="43.69563" lon="3.73861">
        <ele>217.4</ele>
        <time>2022-02-17T13:51:31Z</time>
      </trkpt>
      <trkpt lat="43.69562" lon="3.7386">
        <ele>217.88</ele>
        <time>2022-02-17T13:52:08Z</time>
      </trkpt>
      <trkpt lat="43.6956" lon="3.73859">
        <ele>217.88</ele>
        <time>2022-02-17T13:52:11Z</time>
      </trkpt>
      <trkpt lat="43.69549" lon="3.73853">
        <ele>217.4</ele>
        <time>2022-02-17T13:52:26Z</time>
      </trkpt>
      <trkpt lat="43.69553" lon="3.73856">
        <ele>215.47</ele>
        <time>2022-02-17T13:53:12Z</time>
      </trkpt>
      <trkpt lat="43.69561" lon="3.73859">
        <ele>214.99</ele>
        <time>2022-02-17T13:53:26Z</time>
      </trkpt>
      <trkpt lat="43.69574" lon="3.73861">
        <ele>215.47</ele>
        <time>2022-02-17T13:53:43Z</time>
      </trkpt>
      <trkpt lat="43.69575" lon="3.73857">
        <ele>211.63</ele>
        <time>2022-02-17T13:54:22Z</time>
      </trkpt>
      <trkpt lat="43.6957" lon="3.73863">
        <ele>211.63</ele>
        <time>2022-02-17T13:54:43Z</time>
      </trkpt>
      <trkpt lat="43.69571" lon="3.73863">
        <ele>211.63</ele>
        <time>2022-02-17T13:55:13Z</time>
      </trkpt>
      <trkpt lat="43.69574" lon="3.73858">
        <ele>210.19</ele>
        <time>2022-02-17T13:56:04Z</time>
      </trkpt>
      <trkpt lat="43.69565" lon="3.73869">
        <ele>211.15</ele>
        <time>2022-02-17T13:56:34Z</time>
      </trkpt>
      <trkpt lat="43.69556" lon="3.73872">
        <ele>211.15</ele>
        <time>2022-02-17T13:56:51Z</time>
      </trkpt>
      <trkpt lat="43.69557" lon="3.73871">
        <ele>211.15</ele>
        <time>2022-02-17T13:57:15Z</time>
      </trkpt>
      <trkpt lat="43.69575" lon="3.73888">
        <ele>212.11</ele>
        <time>2022-02-17T13:57:40Z</time>
      </trkpt>
      <trkpt lat="43.69584" lon="3.73894">
        <ele>212.11</ele>
        <time>2022-02-17T13:58:01Z</time>
      </trkpt>
      <trkpt lat="43.69582" lon="3.73895">
        <ele>212.11</ele>
        <time>2022-02-17T13:58:34Z</time>
      </trkpt>
      <trkpt lat="43.69584" lon="3.73895">
        <ele>213.55</ele>
        <time>2022-02-17T13:59:03Z</time>
      </trkpt>
      <trkpt lat="43.69586" lon="3.73898">
        <ele>214.51</ele>
        <time>2022-02-17T13:59:45Z</time>
      </trkpt>
      <trkpt lat="43.69589" lon="3.73902">
        <ele>214.99</ele>
        <time>2022-02-17T14:00:16Z</time>
      </trkpt>
      <trkpt lat="43.6959" lon="3.73902">
        <ele>214.99</ele>
        <time>2022-02-17T14:00:17Z</time>
      </trkpt>
      <trkpt lat="43.69598" lon="3.73912">
        <ele>215.47</ele>
        <time>2022-02-17T14:00:43Z</time>
      </trkpt>
      <trkpt lat="43.69614" lon="3.73927">
        <ele>214.99</ele>
        <time>2022-02-17T14:01:04Z</time>
      </trkpt>
      <trkpt lat="43.69628" lon="3.73938">
        <ele>214.99</ele>
        <time>2022-02-17T14:01:21Z</time>
      </trkpt>
      <trkpt lat="43.69647" lon="3.73947">
        <ele>214.99</ele>
        <time>2022-02-17T14:01:46Z</time>
      </trkpt>
      <trkpt lat="43.69668" lon="3.73961">
        <ele>213.55</ele>
        <time>2022-02-17T14:02:10Z</time>
      </trkpt>
      <trkpt lat="43.69681" lon="3.73964">
        <ele>214.03</ele>
        <time>2022-02-17T14:02:20Z</time>
      </trkpt>
      <trkpt lat="43.69715" lon="3.73974">
        <ele>214.03</ele>
        <time>2022-02-17T14:02:47Z</time>
      </trkpt>
      <trkpt lat="43.69717" lon="3.73975">
        <ele>214.03</ele>
        <time>2022-02-17T14:02:49Z</time>
      </trkpt>
      <trkpt lat="43.69719" lon="3.73976">
        <ele>214.03</ele>
        <time>2022-02-17T14:02:51Z</time>
      </trkpt>
      <trkpt lat="43.69739" lon="3.73983">
        <ele>215.95</ele>
        <time>2022-02-17T14:03:10Z</time>
      </trkpt>
      <trkpt lat="43.69758" lon="3.73987">
        <ele>215.47</ele>
        <time>2022-02-17T14:03:27Z</time>
      </trkpt>
      <trkpt lat="43.69764" lon="3.73989">
        <ele>213.55</ele>
        <time>2022-02-17T14:03:33Z</time>
      </trkpt>
      <trkpt lat="43.69779" lon="3.7399">
        <ele>213.55</ele>
        <time>2022-02-17T14:03:51Z</time>
      </trkpt>
      <trkpt lat="43.69777" lon="3.73987">
        <ele>213.55</ele>
        <time>2022-02-17T14:04:25Z</time>
      </trkpt>
      <trkpt lat="43.69783" lon="3.73992">
        <ele>214.51</ele>
        <time>2022-02-17T14:04:48Z</time>
      </trkpt>
      <trkpt lat="43.69801" lon="3.73994">
        <ele>214.03</ele>
        <time>2022-02-17T14:05:04Z</time>
      </trkpt>
      <trkpt lat="43.6982" lon="3.73992">
        <ele>210.19</ele>
        <time>2022-02-17T14:05:21Z</time>
      </trkpt>
      <trkpt lat="43.69824" lon="3.73993">
        <ele>209.7</ele>
        <time>2022-02-17T14:05:26Z</time>
      </trkpt>
      <trkpt lat="43.69835" lon="3.74005">
        <ele>211.63</ele>
        <time>2022-02-17T14:05:44Z</time>
      </trkpt>
      <trkpt lat="43.69834" lon="3.74024">
        <ele>211.63</ele>
        <time>2022-02-17T14:06:08Z</time>
      </trkpt>
      <trkpt lat="43.69833" lon="3.74034">
        <ele>212.59</ele>
        <time>2022-02-17T14:06:15Z</time>
      </trkpt>
      <trkpt lat="43.69833" lon="3.74048">
        <ele>212.59</ele>
        <time>2022-02-17T14:06:24Z</time>
      </trkpt>
      <trkpt lat="43.69829" lon="3.74076">
        <ele>214.03</ele>
        <time>2022-02-17T14:06:42Z</time>
      </trkpt>
      <trkpt lat="43.69826" lon="3.74113">
        <ele>216.43</ele>
        <time>2022-02-17T14:07:05Z</time>
      </trkpt>
      <trkpt lat="43.69824" lon="3.74155">
        <ele>218.84</ele>
        <time>2022-02-17T14:07:30Z</time>
      </trkpt>
      <trkpt lat="43.69829" lon="3.74172">
        <ele>218.84</ele>
        <time>2022-02-17T14:07:47Z</time>
      </trkpt>
      <trkpt lat="43.69848" lon="3.74176">
        <ele>215.95</ele>
        <time>2022-02-17T14:08:07Z</time>
      </trkpt>
      <trkpt lat="43.69877" lon="3.74179">
        <ele>209.22</ele>
        <time>2022-02-17T14:08:32Z</time>
      </trkpt>
      <trkpt lat="43.69897" lon="3.7418">
        <ele>203.94</ele>
        <time>2022-02-17T14:08:49Z</time>
      </trkpt>
      <trkpt lat="43.6992" lon="3.7418">
        <ele>202.49</ele>
        <time>2022-02-17T14:09:14Z</time>
      </trkpt>
      <trkpt lat="43.69924" lon="3.74181">
        <ele>202.98</ele>
        <time>2022-02-17T14:09:16Z</time>
      </trkpt>
      <trkpt lat="43.69959" lon="3.74181">
        <ele>199.13</ele>
        <time>2022-02-17T14:09:43Z</time>
      </trkpt>
      <trkpt lat="43.69973" lon="3.74188">
        <ele>196.25</ele>
        <time>2022-02-17T14:09:57Z</time>
      </trkpt>
      <trkpt lat="43.69974" lon="3.74204">
        <ele>196.25</ele>
        <time>2022-02-17T14:10:09Z</time>
      </trkpt>
      <trkpt lat="43.69963" lon="3.74227">
        <ele>199.61</ele>
        <time>2022-02-17T14:10:25Z</time>
      </trkpt>
      <trkpt lat="43.69961" lon="3.74233">
        <ele>200.57</ele>
        <time>2022-02-17T14:10:29Z</time>
      </trkpt>
      <trkpt lat="43.69953" lon="3.74252">
        <ele>201.05</ele>
        <time>2022-02-17T14:10:44Z</time>
      </trkpt>
      <trkpt lat="43.69939" lon="3.74276">
        <ele>203.46</ele>
        <time>2022-02-17T14:11:03Z</time>
      </trkpt>
      <trkpt lat="43.69939" lon="3.74279">
        <ele>203.46</ele>
        <time>2022-02-17T14:11:05Z</time>
      </trkpt>
      <trkpt lat="43.69936" lon="3.74301">
        <ele>204.42</ele>
        <time>2022-02-17T14:11:20Z</time>
      </trkpt>
      <trkpt lat="43.69932" lon="3.74341">
        <ele>207.3</ele>
        <time>2022-02-17T14:11:46Z</time>
      </trkpt>
      <trkpt lat="43.6993" lon="3.74377">
        <ele>208.74</ele>
        <time>2022-02-17T14:12:07Z</time>
      </trkpt>
      <trkpt lat="43.6994" lon="3.74399">
        <ele>210.67</ele>
        <time>2022-02-17T14:12:22Z</time>
      </trkpt>
      <trkpt lat="43.69937" lon="3.74407">
        <ele>210.67</ele>
        <time>2022-02-17T14:12:27Z</time>
      </trkpt>
      <trkpt lat="43.69943" lon="3.74431">
        <ele>212.59</ele>
        <time>2022-02-17T14:12:42Z</time>
      </trkpt>
      <trkpt lat="43.69946" lon="3.74453">
        <ele>214.03</ele>
        <time>2022-02-17T14:12:56Z</time>
      </trkpt>
      <trkpt lat="43.69948" lon="3.74461">
        <ele>214.99</ele>
        <time>2022-02-17T14:13:01Z</time>
      </trkpt>
      <trkpt lat="43.69944" lon="3.74479">
        <ele>216.43</ele>
        <time>2022-02-17T14:13:12Z</time>
      </trkpt>
      <trkpt lat="43.69945" lon="3.74491">
        <ele>217.88</ele>
        <time>2022-02-17T14:13:19Z</time>
      </trkpt>
      <trkpt lat="43.69945" lon="3.74505">
        <ele>218.36</ele>
        <time>2022-02-17T14:13:29Z</time>
      </trkpt>
      <trkpt lat="43.69946" lon="3.74528">
        <ele>218.36</ele>
        <time>2022-02-17T14:13:44Z</time>
      </trkpt>
      <trkpt lat="43.69954" lon="3.7455">
        <ele>219.8</ele>
        <time>2022-02-17T14:13:58Z</time>
      </trkpt>
      <trkpt lat="43.69955" lon="3.74564">
        <ele>220.76</ele>
        <time>2022-02-17T14:14:07Z</time>
      </trkpt>
      <trkpt lat="43.69961" lon="3.74577">
        <ele>219.32</ele>
        <time>2022-02-17T14:14:18Z</time>
      </trkpt>
      <trkpt lat="43.69963" lon="3.74589">
        <ele>217.4</ele>
        <time>2022-02-17T14:14:27Z</time>
      </trkpt>
      <trkpt lat="43.69972" lon="3.74596">
        <ele>217.4</ele>
        <time>2022-02-17T14:14:33Z</time>
      </trkpt>
      <trkpt lat="43.69974" lon="3.74606">
        <ele>216.91</ele>
        <time>2022-02-17T14:14:40Z</time>
      </trkpt>
      <trkpt lat="43.69978" lon="3.74624">
        <ele>216.91</ele>
        <time>2022-02-17T14:14:53Z</time>
      </trkpt>
      <trkpt lat="43.69975" lon="3.74649">
        <ele>214.99</ele>
        <time>2022-02-17T14:15:10Z</time>
      </trkpt>
      <trkpt lat="43.69967" lon="3.74667">
        <ele>214.51</ele>
        <time>2022-02-17T14:15:25Z</time>
      </trkpt>
      <trkpt lat="43.69958" lon="3.74682">
        <ele>214.03</ele>
        <time>2022-02-17T14:15:40Z</time>
      </trkpt>
      <trkpt lat="43.69944" lon="3.747">
        <ele>214.03</ele>
        <time>2022-02-17T14:15:59Z</time>
      </trkpt>
      <trkpt lat="43.69928" lon="3.74714">
        <ele>214.03</ele>
        <time>2022-02-17T14:16:15Z</time>
      </trkpt>
      <trkpt lat="43.69913" lon="3.74726">
        <ele>214.03</ele>
        <time>2022-02-17T14:16:30Z</time>
      </trkpt>
      <trkpt lat="43.69898" lon="3.7474">
        <ele>214.51</ele>
        <time>2022-02-17T14:16:45Z</time>
      </trkpt>
      <trkpt lat="43.6988" lon="3.74755">
        <ele>214.99</ele>
        <time>2022-02-17T14:17:04Z</time>
      </trkpt>
      <trkpt lat="43.69867" lon="3.74768">
        <ele>216.43</ele>
        <time>2022-02-17T14:17:19Z</time>
      </trkpt>
      <trkpt lat="43.69848" lon="3.74798">
        <ele>219.32</ele>
        <time>2022-02-17T14:17:44Z</time>
      </trkpt>
      <trkpt lat="43.69831" lon="3.74822">
        <ele>220.76</ele>
        <time>2022-02-17T14:18:05Z</time>
      </trkpt>
      <trkpt lat="43.69827" lon="3.74828">
        <ele>220.76</ele>
        <time>2022-02-17T14:18:10Z</time>
      </trkpt>
      <trkpt lat="43.69812" lon="3.74842">
        <ele>221.24</ele>
        <time>2022-02-17T14:18:25Z</time>
      </trkpt>
      <trkpt lat="43.69786" lon="3.74858">
        <ele>220.76</ele>
        <time>2022-02-17T14:18:49Z</time>
      </trkpt>
      <trkpt lat="43.69774" lon="3.74874">
        <ele>220.76</ele>
        <time>2022-02-17T14:19:05Z</time>
      </trkpt>
      <trkpt lat="43.69766" lon="3.749">
        <ele>220.76</ele>
        <time>2022-02-17T14:19:24Z</time>
      </trkpt>
      <trkpt lat="43.69756" lon="3.74913">
        <ele>218.84</ele>
        <time>2022-02-17T14:19:48Z</time>
      </trkpt>
      <trkpt lat="43.69737" lon="3.74942">
        <ele>216.91</ele>
        <time>2022-02-17T14:20:15Z</time>
      </trkpt>
      <trkpt lat="43.69725" lon="3.74958">
        <ele>215.47</ele>
        <time>2022-02-17T14:20:28Z</time>
      </trkpt>
      <trkpt lat="43.69714" lon="3.74975">
        <ele>214.99</ele>
        <time>2022-02-17T14:20:44Z</time>
      </trkpt>
      <trkpt lat="43.69705" lon="3.74985">
        <ele>214.99</ele>
        <time>2022-02-17T14:20:55Z</time>
      </trkpt>
      <trkpt lat="43.69702" lon="3.74986">
        <ele>215.47</ele>
        <time>2022-02-17T14:20:57Z</time>
      </trkpt>
      <trkpt lat="43.69695" lon="3.75008">
        <ele>217.4</ele>
        <time>2022-02-17T14:21:15Z</time>
      </trkpt>
      <trkpt lat="43.69684" lon="3.75028">
        <ele>218.36</ele>
        <time>2022-02-17T14:21:29Z</time>
      </trkpt>
      <trkpt lat="43.69678" lon="3.75052">
        <ele>219.32</ele>
        <time>2022-02-17T14:21:46Z</time>
      </trkpt>
      <trkpt lat="43.69673" lon="3.75073">
        <ele>218.84</ele>
        <time>2022-02-17T14:22:01Z</time>
      </trkpt>
      <trkpt lat="43.69665" lon="3.75096">
        <ele>218.84</ele>
        <time>2022-02-17T14:22:18Z</time>
      </trkpt>
      <trkpt lat="43.69654" lon="3.75119">
        <ele>220.28</ele>
        <time>2022-02-17T14:22:38Z</time>
      </trkpt>
      <trkpt lat="43.69634" lon="3.75133">
        <ele>220.28</ele>
        <time>2022-02-17T14:22:57Z</time>
      </trkpt>
      <trkpt lat="43.69633" lon="3.75135">
        <ele>220.28</ele>
        <time>2022-02-17T14:22:59Z</time>
      </trkpt>
      <trkpt lat="43.69616" lon="3.75151">
        <ele>220.76</ele>
        <time>2022-02-17T14:23:18Z</time>
      </trkpt>
      <trkpt lat="43.69596" lon="3.75169">
        <ele>222.68</ele>
        <time>2022-02-17T14:23:41Z</time>
      </trkpt>
      <trkpt lat="43.69589" lon="3.75178">
        <ele>222.68</ele>
        <time>2022-02-17T14:23:49Z</time>
      </trkpt>
      <trkpt lat="43.69586" lon="3.75179">
        <ele>222.2</ele>
        <time>2022-02-17T14:23:52Z</time>
      </trkpt>
      <trkpt lat="43.69573" lon="3.75194">
        <ele>222.2</ele>
        <time>2022-02-17T14:24:10Z</time>
      </trkpt>
      <trkpt lat="43.69561" lon="3.75203">
        <ele>222.2</ele>
        <time>2022-02-17T14:24:25Z</time>
      </trkpt>
      <trkpt lat="43.69543" lon="3.75226">
        <ele>222.68</ele>
        <time>2022-02-17T14:24:48Z</time>
      </trkpt>
      <trkpt lat="43.69526" lon="3.75247">
        <ele>223.16</ele>
        <time>2022-02-17T14:25:11Z</time>
      </trkpt>
      <trkpt lat="43.69506" lon="3.75263">
        <ele>224.12</ele>
        <time>2022-02-17T14:25:34Z</time>
      </trkpt>
      <trkpt lat="43.69494" lon="3.75267">
        <ele>225.09</ele>
        <time>2022-02-17T14:25:49Z</time>
      </trkpt>
      <trkpt lat="43.69466" lon="3.75275">
        <ele>226.05</ele>
        <time>2022-02-17T14:26:13Z</time>
      </trkpt>
      <trkpt lat="43.6945" lon="3.75276">
        <ele>227.01</ele>
        <time>2022-02-17T14:26:33Z</time>
      </trkpt>
      <trkpt lat="43.6943" lon="3.75281">
        <ele>228.45</ele>
        <time>2022-02-17T14:26:57Z</time>
      </trkpt>
      <trkpt lat="43.69407" lon="3.75281">
        <ele>229.41</ele>
        <time>2022-02-17T14:27:14Z</time>
      </trkpt>
      <trkpt lat="43.69377" lon="3.75286">
        <ele>230.37</ele>
        <time>2022-02-17T14:27:43Z</time>
      </trkpt>
      <trkpt lat="43.69354" lon="3.75283">
        <ele>231.33</ele>
        <time>2022-02-17T14:28:06Z</time>
      </trkpt>
      <trkpt lat="43.69345" lon="3.75274">
        <ele>231.81</ele>
        <time>2022-02-17T14:28:16Z</time>
      </trkpt>
      <trkpt lat="43.69339" lon="3.75253">
        <ele>229.89</ele>
        <time>2022-02-17T14:28:33Z</time>
      </trkpt>
      <trkpt lat="43.69332" lon="3.75234">
        <ele>227.01</ele>
        <time>2022-02-17T14:28:49Z</time>
      </trkpt>
      <trkpt lat="43.69326" lon="3.75212">
        <ele>224.12</ele>
        <time>2022-02-17T14:29:06Z</time>
      </trkpt>
      <trkpt lat="43.69326" lon="3.75211">
        <ele>224.12</ele>
        <time>2022-02-17T14:29:07Z</time>
      </trkpt>
      <trkpt lat="43.69322" lon="3.75202">
        <ele>222.2</ele>
        <time>2022-02-17T14:29:14Z</time>
      </trkpt>
      <trkpt lat="43.69321" lon="3.75192">
        <ele>220.76</ele>
        <time>2022-02-17T14:29:22Z</time>
      </trkpt>
      <trkpt lat="43.69312" lon="3.75176">
        <ele>217.4</ele>
        <time>2022-02-17T14:29:36Z</time>
      </trkpt>
      <trkpt lat="43.69301" lon="3.75157">
        <ele>212.59</ele>
        <time>2022-02-17T14:29:52Z</time>
      </trkpt>
      <trkpt lat="43.69287" lon="3.7513">
        <ele>208.74</ele>
        <time>2022-02-17T14:30:16Z</time>
      </trkpt>
      <trkpt lat="43.69281" lon="3.75128">
        <ele>207.78</ele>
        <time>2022-02-17T14:30:21Z</time>
      </trkpt>
      <trkpt lat="43.69275" lon="3.7512">
        <ele>206.34</ele>
        <time>2022-02-17T14:30:28Z</time>
      </trkpt>
      <trkpt lat="43.6927" lon="3.75112">
        <ele>205.38</ele>
        <time>2022-02-17T14:30:35Z</time>
      </trkpt>
      <trkpt lat="43.69262" lon="3.75091">
        <ele>202.49</ele>
        <time>2022-02-17T14:30:51Z</time>
      </trkpt>
      <trkpt lat="43.69261" lon="3.75066">
        <ele>197.69</ele>
        <time>2022-02-17T14:31:07Z</time>
      </trkpt>
      <trkpt lat="43.6926" lon="3.75044">
        <ele>194.8</ele>
        <time>2022-02-17T14:31:22Z</time>
      </trkpt>
      <trkpt lat="43.69259" lon="3.75036">
        <ele>194.32</ele>
        <time>2022-02-17T14:31:27Z</time>
      </trkpt>
      <trkpt lat="43.69256" lon="3.75023">
        <ele>193.36</ele>
        <time>2022-02-17T14:31:36Z</time>
      </trkpt>
      <trkpt lat="43.69245" lon="3.75006">
        <ele>193.36</ele>
        <time>2022-02-17T14:31:50Z</time>
      </trkpt>
      <trkpt lat="43.69235" lon="3.74995">
        <ele>193.84</ele>
        <time>2022-02-17T14:32:02Z</time>
      </trkpt>
      <trkpt lat="43.69224" lon="3.74984">
        <ele>194.8</ele>
        <time>2022-02-17T14:32:13Z</time>
      </trkpt>
      <trkpt lat="43.69215" lon="3.74961">
        <ele>193.36</ele>
        <time>2022-02-17T14:32:28Z</time>
      </trkpt>
      <trkpt lat="43.69203" lon="3.7495">
        <ele>194.32</ele>
        <time>2022-02-17T14:32:40Z</time>
      </trkpt>
      <trkpt lat="43.69193" lon="3.74928">
        <ele>193.36</ele>
        <time>2022-02-17T14:32:56Z</time>
      </trkpt>
      <trkpt lat="43.69191" lon="3.74904">
        <ele>192.4</ele>
        <time>2022-02-17T14:33:13Z</time>
      </trkpt>
      <trkpt lat="43.69191" lon="3.749">
        <ele>192.4</ele>
        <time>2022-02-17T14:33:15Z</time>
      </trkpt>
      <trkpt lat="43.69193" lon="3.74896">
        <ele>191.92</ele>
        <time>2022-02-17T14:33:18Z</time>
      </trkpt>
      <trkpt lat="43.69191" lon="3.74871">
        <ele>190.96</ele>
        <time>2022-02-17T14:33:34Z</time>
      </trkpt>
      <trkpt lat="43.69188" lon="3.74859">
        <ele>191.44</ele>
        <time>2022-02-17T14:33:43Z</time>
      </trkpt>
      <trkpt lat="43.69184" lon="3.74847">
        <ele>191.92</ele>
        <time>2022-02-17T14:33:52Z</time>
      </trkpt>
      <trkpt lat="43.69176" lon="3.74826">
        <ele>193.36</ele>
        <time>2022-02-17T14:34:08Z</time>
      </trkpt>
      <trkpt lat="43.69157" lon="3.74799">
        <ele>196.25</ele>
        <time>2022-02-17T14:34:31Z</time>
      </trkpt>
      <trkpt lat="43.69135" lon="3.74778">
        <ele>198.65</ele>
        <time>2022-02-17T14:34:57Z</time>
      </trkpt>
      <trkpt lat="43.69112" lon="3.74746">
        <ele>198.65</ele>
        <time>2022-02-17T14:35:23Z</time>
      </trkpt>
      <trkpt lat="43.69098" lon="3.74714">
        <ele>198.65</ele>
        <time>2022-02-17T14:35:46Z</time>
      </trkpt>
      <trkpt lat="43.69084" lon="3.74683">
        <ele>198.65</ele>
        <time>2022-02-17T14:36:11Z</time>
      </trkpt>
      <trkpt lat="43.69078" lon="3.74658">
        <ele>197.69</ele>
        <time>2022-02-17T14:36:34Z</time>
      </trkpt>
      <trkpt lat="43.69074" lon="3.74645">
        <ele>196.73</ele>
        <time>2022-02-17T14:36:46Z</time>
      </trkpt>
      <trkpt lat="43.69072" lon="3.74637">
        <ele>195.77</ele>
        <time>2022-02-17T14:36:52Z</time>
      </trkpt>
      <trkpt lat="43.69071" lon="3.74612">
        <ele>193.36</ele>
        <time>2022-02-17T14:37:08Z</time>
      </trkpt>
      <trkpt lat="43.69062" lon="3.74587">
        <ele>191.92</ele>
        <time>2022-02-17T14:37:27Z</time>
      </trkpt>
      <trkpt lat="43.69053" lon="3.74582">
        <ele>191.44</ele>
        <time>2022-02-17T14:37:38Z</time>
      </trkpt>
      <trkpt lat="43.6904" lon="3.7459">
        <ele>189.04</ele>
        <time>2022-02-17T14:37:53Z</time>
      </trkpt>
      <trkpt lat="43.69035" lon="3.74593">
        <ele>186.63</ele>
        <time>2022-02-17T14:38:09Z</time>
      </trkpt>
      <trkpt lat="43.69038" lon="3.74591">
        <ele>184.23</ele>
        <time>2022-02-17T14:38:36Z</time>
      </trkpt>
      <trkpt lat="43.69038" lon="3.74591">
        <ele>184.23</ele>
        <time>2022-02-17T14:38:37Z</time>
      </trkpt>
    </trkseg>
  </trk>
</gpx>